<?xml version="1.0" encoding="UTF-8" standalone="no" ?><gpx xmlns="http://www.topografix.com/GPX/1/1" xmlns:gpxx="http://www.garmin.com/xmlschemas/GpxExtensions/v3" xmlns:wptx1="http://www.garmin.com/xmlschemas/WaypointExtension/v1" xmlns:gpxtpx="http://www.garmin.com/xmlschemas/TrackPointExtension/v1" creator="Astro 320" version="1.1" xmlns:xsi="http://www.w3.org/2001/XMLSchema-instance" xsi:schemaLocation="http://www.topografix.com/GPX/1/1 http://www.topografix.com/GPX/1/1/gpx.xsd http://www.garmin.com/xmlschemas/GpxExtensions/v3 http://www8.garmin.com/xmlschemas/GpxExtensionsv3.xsd http://www.garmin.com/xmlschemas/WaypointExtension/v1 http://www8.garmin.com/xmlschemas/WaypointExtensionv1.xsd http://www.garmin.com/xmlschemas/TrackPointExtension/v1 http://www.garmin.com/xmlschemas/TrackPointExtensionv1.xsd"><metadata><link href="http://www.garmin.com"><text>Garmin International</text></link><time>2026-08-20T21:16:13Z</time></metadata><trk><name>2026-08-21 00:16:10</name><extensions><gpxx:TrackExtension><gpxx:DisplayColor>Cyan</gpxx:DisplayColor></gpxx:TrackExtension></extensions><trkseg><trkpt lat="59.1128525231" lon="30.4820639268"><ele>39.07</ele><time>2026-08-20T16:35:49Z</time></trkpt><trkpt lat="59.1128656827" lon="30.4820526112"><ele>39.07</ele><time>2026-08-20T16:35:59Z</time></trkpt><trkpt lat="59.1128868889" lon="30.4820131324"><ele>39.07</ele><time>2026-08-20T16:36:14Z</time></trkpt><trkpt lat="59.1128871404" lon="30.4820243642"><ele>39.07</ele><time>2026-08-20T16:36:33Z</time></trkpt><trkpt lat="59.1128526907" lon="30.4820457380"><ele>39.55</ele><time>2026-08-20T16:36:44Z</time></trkpt><trkpt lat="59.1127239447" lon="30.4820454028"><ele>39.55</ele><time>2026-08-20T16:36:57Z</time></trkpt><trkpt lat="59.1125860624" lon="30.4820960294"><ele>39.55</ele><time>2026-08-20T16:37:11Z</time></trkpt><trkpt lat="59.1125325020" lon="30.4821244441"><ele>40.03</ele><time>2026-08-20T16:37:30Z</time></trkpt><trkpt lat="59.1124514490" lon="30.4821536131"><ele>40.03</ele><time>2026-08-20T16:37:42Z</time></trkpt><trkpt lat="59.1124498565" lon="30.4821537808"><ele>40.03</ele><time>2026-08-20T16:37:43Z</time></trkpt><trkpt lat="59.1124023311" lon="30.4821706284"><ele>40.03</ele><time>2026-08-20T16:37:57Z</time></trkpt><trkpt lat="59.1123416461" lon="30.4822018091"><ele>40.03</ele><time>2026-08-20T16:38:02Z</time></trkpt><trkpt lat="59.1122012492" lon="30.4821996298"><ele>40.03</ele><time>2026-08-20T16:38:12Z</time></trkpt><trkpt lat="59.1121102218" lon="30.4822318163"><ele>40.51</ele><time>2026-08-20T16:38:24Z</time></trkpt><trkpt lat="59.1120220441" lon="30.4822769947"><ele>40.51</ele><time>2026-08-20T16:38:38Z</time></trkpt><trkpt lat="59.1119882651" lon="30.4822938424"><ele>40.51</ele><time>2026-08-20T16:38:51Z</time></trkpt><trkpt lat="59.1119461041" lon="30.4823102709"><ele>40.51</ele><time>2026-08-20T16:39:09Z</time></trkpt><trkpt lat="59.1118620336" lon="30.4823239334"><ele>40.99</ele><time>2026-08-20T16:39:23Z</time></trkpt><trkpt lat="59.1118530650" lon="30.4823251907"><ele>40.99</ele><time>2026-08-20T16:39:24Z</time></trkpt><trkpt lat="59.1118347086" lon="30.4823490791"><ele>40.99</ele><time>2026-08-20T16:39:27Z</time></trkpt><trkpt lat="59.1117549967" lon="30.4823686928"><ele>40.99</ele><time>2026-08-20T16:39:35Z</time></trkpt><trkpt lat="59.1116949823" lon="30.4823708721"><ele>40.99</ele><time>2026-08-20T16:39:40Z</time></trkpt><trkpt lat="59.1116456967" lon="30.4823930841"><ele>40.99</ele><time>2026-08-20T16:39:44Z</time></trkpt><trkpt lat="59.1115997639" lon="30.4824332334"><ele>40.99</ele><time>2026-08-20T16:39:58Z</time></trkpt><trkpt lat="59.1114868596" lon="30.4824620672"><ele>40.99</ele><time>2026-08-20T16:40:09Z</time></trkpt><trkpt lat="59.1114581097" lon="30.4824774060"><ele>40.99</ele><time>2026-08-20T16:40:12Z</time></trkpt><trkpt lat="59.1113406792" lon="30.4824905656"><ele>40.99</ele><time>2026-08-20T16:40:20Z</time></trkpt><trkpt lat="59.1112632304" lon="30.4825268593"><ele>41.47</ele><time>2026-08-20T16:40:25Z</time></trkpt><trkpt lat="59.1111331433" lon="30.4825482331"><ele>41.47</ele><time>2026-08-20T16:40:31Z</time></trkpt><trkpt lat="59.1111071594" lon="30.4825724568"><ele>41.47</ele><time>2026-08-20T16:40:33Z</time></trkpt><trkpt lat="59.1110196523" lon="30.4825963452"><ele>41.47</ele><time>2026-08-20T16:40:38Z</time></trkpt><trkpt lat="59.1108349990" lon="30.4826774821"><ele>41.47</ele><time>2026-08-20T16:40:49Z</time></trkpt><trkpt lat="59.1107201669" lon="30.4826736264"><ele>41.47</ele><time>2026-08-20T16:40:59Z</time></trkpt><trkpt lat="59.1107058339" lon="30.4826790746"><ele>41.47</ele><time>2026-08-20T16:41:03Z</time></trkpt><trkpt lat="59.1106126271" lon="30.4827040527"><ele>41.47</ele><time>2026-08-20T16:41:16Z</time></trkpt><trkpt lat="59.1105492599" lon="30.4826871213"><ele>41.47</ele><time>2026-08-20T16:41:32Z</time></trkpt><trkpt lat="59.1104340926" lon="30.4827328864"><ele>41.47</ele><time>2026-08-20T16:41:44Z</time></trkpt><trkpt lat="59.1104091145" lon="30.4827276058"><ele>41.95</ele><time>2026-08-20T16:41:47Z</time></trkpt><trkpt lat="59.1103578173" lon="30.4827286117"><ele>41.95</ele><time>2026-08-20T16:41:53Z</time></trkpt><trkpt lat="59.1103354376" lon="30.4827318806"><ele>41.95</ele><time>2026-08-20T16:41:55Z</time></trkpt><trkpt lat="59.1102586593" lon="30.4827582836"><ele>41.95</ele><time>2026-08-20T16:42:05Z</time></trkpt><trkpt lat="59.1102575697" lon="30.4827593733"><ele>41.95</ele><time>2026-08-20T16:42:06Z</time></trkpt><trkpt lat="59.1102270596" lon="30.4827887937"><ele>41.95</ele><time>2026-08-20T16:42:09Z</time></trkpt><trkpt lat="59.1100932844" lon="30.4828037135"><ele>41.95</ele><time>2026-08-20T16:42:19Z</time></trkpt><trkpt lat="59.1099165939" lon="30.4828119278"><ele>41.95</ele><time>2026-08-20T16:42:33Z</time></trkpt><trkpt lat="59.1097944696" lon="30.4829301964"><ele>41.95</ele><time>2026-08-20T16:42:44Z</time></trkpt><trkpt lat="59.1096696630" lon="30.4829545040"><ele>41.95</ele><time>2026-08-20T16:42:52Z</time></trkpt><trkpt lat="59.1096197907" lon="30.4829188809"><ele>41.95</ele><time>2026-08-20T16:42:56Z</time></trkpt><trkpt lat="59.1095137596" lon="30.4829835892"><ele>40.99</ele><time>2026-08-20T16:43:06Z</time></trkpt><trkpt lat="59.1094824113" lon="30.4830159433"><ele>40.99</ele><time>2026-08-20T16:43:29Z</time></trkpt><trkpt lat="59.1094780527" lon="30.4830213077"><ele>40.99</ele><time>2026-08-20T16:43:47Z</time></trkpt><trkpt lat="59.1094858479" lon="30.4830592778"><ele>40.99</ele><time>2026-08-20T16:44:14Z</time></trkpt><trkpt lat="59.1094670724" lon="30.4830693360"><ele>40.99</ele><time>2026-08-20T16:44:40Z</time></trkpt><trkpt lat="59.1094688326" lon="30.4830586910"><ele>40.99</ele><time>2026-08-20T16:45:07Z</time></trkpt><trkpt lat="59.1094581876" lon="30.4830591101"><ele>40.99</ele><time>2026-08-20T16:45:33Z</time></trkpt><trkpt lat="59.1094630491" lon="30.4830573499"><ele>40.99</ele><time>2026-08-20T16:45:58Z</time></trkpt><trkpt lat="59.1094630491" lon="30.4830471240"><ele>42.44</ele><time>2026-08-20T16:46:30Z</time></trkpt><trkpt lat="59.1094535775" lon="30.4830384906"><ele>42.44</ele><time>2026-08-20T16:47:04Z</time></trkpt><trkpt lat="59.1094449442" lon="30.4830510635"><ele>42.92</ele><time>2026-08-20T16:47:35Z</time></trkpt><trkpt lat="59.1094556730" lon="30.4830471240"><ele>42.92</ele><time>2026-08-20T16:47:57Z</time></trkpt><trkpt lat="59.1094606183" lon="30.4830576852"><ele>42.92</ele><time>2026-08-20T16:48:22Z</time></trkpt><trkpt lat="59.1094700899" lon="30.4830498900"><ele>43.40</ele><time>2026-08-20T16:48:49Z</time></trkpt><trkpt lat="59.1094753705" lon="30.4830258340"><ele>43.40</ele><time>2026-08-20T16:49:09Z</time></trkpt><trkpt lat="59.1095048748" lon="30.4830088187"><ele>43.40</ele><time>2026-08-20T16:49:29Z</time></trkpt><trkpt lat="59.1095327027" lon="30.4829938151"><ele>43.40</ele><time>2026-08-20T16:49:46Z</time></trkpt><trkpt lat="59.1095447727" lon="30.4829695076"><ele>43.40</ele><time>2026-08-20T16:50:15Z</time></trkpt><trkpt lat="59.1095460299" lon="30.4829567671"><ele>42.92</ele><time>2026-08-20T16:50:39Z</time></trkpt><trkpt lat="59.1095165256" lon="30.4829384945"><ele>42.92</ele><time>2026-08-20T16:50:56Z</time></trkpt><trkpt lat="59.1095166095" lon="30.4829626344"><ele>42.92</ele><time>2026-08-20T16:51:16Z</time></trkpt><trkpt lat="59.1095042042" lon="30.4829628859"><ele>42.92</ele><time>2026-08-20T16:51:35Z</time></trkpt><trkpt lat="59.1095026117" lon="30.4829512350"><ele>43.40</ele><time>2026-08-20T16:51:59Z</time></trkpt><trkpt lat="59.1094987560" lon="30.4829582758"><ele>43.40</ele><time>2026-08-20T16:52:27Z</time></trkpt><trkpt lat="59.1095034499" lon="30.4829638917"><ele>43.88</ele><time>2026-08-20T16:52:57Z</time></trkpt><trkpt lat="59.1095095687" lon="30.4829623830"><ele>43.88</ele><time>2026-08-20T16:53:29Z</time></trkpt><trkpt lat="59.1095078923" lon="30.4829505645"><ele>43.88</ele><time>2026-08-20T16:53:56Z</time></trkpt><trkpt lat="59.1095058806" lon="30.4829464573"><ele>44.36</ele><time>2026-08-20T16:54:34Z</time></trkpt><trkpt lat="59.1095006000" lon="30.4829560127"><ele>44.36</ele><time>2026-08-20T16:54:58Z</time></trkpt><trkpt lat="59.1094950680" lon="30.4829753749"><ele>44.84</ele><time>2026-08-20T16:55:30Z</time></trkpt><trkpt lat="59.1095001809" lon="30.4829795659"><ele>44.84</ele><time>2026-08-20T16:55:57Z</time></trkpt><trkpt lat="59.1094982531" lon="30.4829707649"><ele>45.32</ele><time>2026-08-20T16:56:15Z</time></trkpt><trkpt lat="59.1095077246" lon="30.4829565156"><ele>45.32</ele><time>2026-08-20T16:56:32Z</time></trkpt><trkpt lat="59.1095049586" lon="30.4829557613"><ele>45.32</ele><time>2026-08-20T16:56:54Z</time></trkpt><trkpt lat="59.1095045395" lon="30.4829632211"><ele>45.80</ele><time>2026-08-20T16:57:23Z</time></trkpt><trkpt lat="59.1095084790" lon="30.4829598684"><ele>45.80</ele><time>2026-08-20T16:57:46Z</time></trkpt><trkpt lat="59.1095073055" lon="30.4829463735"><ele>45.80</ele><time>2026-08-20T16:58:15Z</time></trkpt><trkpt lat="59.1095070541" lon="30.4829466250"><ele>46.28</ele><time>2026-08-20T16:58:37Z</time></trkpt><trkpt lat="59.1095011029" lon="30.4829574376"><ele>46.28</ele><time>2026-08-20T16:59:09Z</time></trkpt><trkpt lat="59.1094990075" lon="30.4829676636"><ele>46.76</ele><time>2026-08-20T16:59:40Z</time></trkpt><trkpt lat="59.1094932240" lon="30.4829727765"><ele>46.76</ele><time>2026-08-20T17:00:05Z</time></trkpt><trkpt lat="59.1094937269" lon="30.4829632211"><ele>46.76</ele><time>2026-08-20T17:00:29Z</time></trkpt><trkpt lat="59.1095012706" lon="30.4829641432"><ele>47.24</ele><time>2026-08-20T17:00:53Z</time></trkpt><trkpt lat="59.1094947327" lon="30.4829745367"><ele>47.24</ele><time>2026-08-20T17:01:11Z</time></trkpt><trkpt lat="59.1095030308" lon="30.4829867743"><ele>47.24</ele><time>2026-08-20T17:01:32Z</time></trkpt><trkpt lat="59.1094928049" lon="30.4829803202"><ele>47.24</ele><time>2026-08-20T17:01:48Z</time></trkpt><trkpt lat="59.1094669048" lon="30.4830177873"><ele>47.24</ele><time>2026-08-20T17:02:00Z</time></trkpt><trkpt lat="59.1094616242" lon="30.4830159433"><ele>47.24</ele><time>2026-08-20T17:02:15Z</time></trkpt><trkpt lat="59.1094739456" lon="30.4830114171"><ele>47.24</ele><time>2026-08-20T17:02:27Z</time></trkpt><trkpt lat="59.1094665695" lon="30.4829619639"><ele>47.24</ele><time>2026-08-20T17:02:42Z</time></trkpt><trkpt lat="59.1094519012" lon="30.4829687532"><ele>47.24</ele><time>2026-08-20T17:02:59Z</time></trkpt><trkpt lat="59.1094373167" lon="30.4829566833"><ele>47.24</ele><time>2026-08-20T17:03:09Z</time></trkpt><trkpt lat="59.1094057169" lon="30.4829550069"><ele>47.24</ele><time>2026-08-20T17:03:12Z</time></trkpt><trkpt lat="59.1093630530" lon="30.4829414282"><ele>47.24</ele><time>2026-08-20T17:03:15Z</time></trkpt><trkpt lat="59.1092539206" lon="30.4829728603"><ele>47.72</ele><time>2026-08-20T17:03:27Z</time></trkpt><trkpt lat="59.1091656592" lon="30.4830241576"><ele>47.72</ele><time>2026-08-20T17:03:38Z</time></trkpt><trkpt lat="59.1090903897" lon="30.4830573499"><ele>47.72</ele><time>2026-08-20T17:03:48Z</time></trkpt><trkpt lat="59.1090926528" lon="30.4831814021"><ele>47.72</ele><time>2026-08-20T17:04:00Z</time></trkpt><trkpt lat="59.1090898868" lon="30.4832239822"><ele>47.72</ele><time>2026-08-20T17:04:16Z</time></trkpt><trkpt lat="59.1090893000" lon="30.4832679871"><ele>47.72</ele><time>2026-08-20T17:04:30Z</time></trkpt><trkpt lat="59.1090865340" lon="30.4832974076"><ele>47.72</ele><time>2026-08-20T17:04:51Z</time></trkpt><trkpt lat="59.1090742964" lon="30.4833024368"><ele>47.72</ele><time>2026-08-20T17:04:55Z</time></trkpt><trkpt lat="59.1090394277" lon="30.4832957312"><ele>47.72</ele><time>2026-08-20T17:05:08Z</time></trkpt><trkpt lat="59.1090157069" lon="30.4832728487"><ele>47.72</ele><time>2026-08-20T17:05:24Z</time></trkpt><trkpt lat="59.1089723725" lon="30.4831464496"><ele>47.72</ele><time>2026-08-20T17:05:34Z</time></trkpt><trkpt lat="59.1089641582" lon="30.4831144307"><ele>47.72</ele><time>2026-08-20T17:05:37Z</time></trkpt><trkpt lat="59.1089605540" lon="30.4829180427"><ele>47.72</ele><time>2026-08-20T17:05:49Z</time></trkpt><trkpt lat="59.1089546029" lon="30.4827830940"><ele>47.72</ele><time>2026-08-20T17:06:04Z</time></trkpt><trkpt lat="59.1089526750" lon="30.4827285279"><ele>47.72</ele><time>2026-08-20T17:06:11Z</time></trkpt><trkpt lat="59.1089527588" lon="30.4825743008"><ele>47.72</ele><time>2026-08-20T17:06:16Z</time></trkpt><trkpt lat="59.1089525912" lon="30.4824201576"><ele>47.72</ele><time>2026-08-20T17:06:22Z</time></trkpt><trkpt lat="59.1089434549" lon="30.4823702015"><ele>47.72</ele><time>2026-08-20T17:06:25Z</time></trkpt><trkpt lat="59.1089359950" lon="30.4823194910"><ele>47.72</ele><time>2026-08-20T17:06:28Z</time></trkpt><trkpt lat="59.1089276131" lon="30.4822723847"><ele>47.72</ele><time>2026-08-20T17:06:31Z</time></trkpt><trkpt lat="59.1089359950" lon="30.4822319001"><ele>47.72</ele><time>2026-08-20T17:06:33Z</time></trkpt><trkpt lat="59.1089362465" lon="30.4820348416"><ele>47.72</ele><time>2026-08-20T17:06:45Z</time></trkpt><trkpt lat="59.1089364141" lon="30.4819888249"><ele>47.72</ele><time>2026-08-20T17:06:47Z</time></trkpt><trkpt lat="59.1089222487" lon="30.4818492662"><ele>47.72</ele><time>2026-08-20T17:06:54Z</time></trkpt><trkpt lat="59.1089152917" lon="30.4816149082"><ele>47.72</ele><time>2026-08-20T17:07:06Z</time></trkpt><trkpt lat="59.1089109331" lon="30.4814760201"><ele>47.72</ele><time>2026-08-20T17:07:17Z</time></trkpt><trkpt lat="59.1089095920" lon="30.4814119823"><ele>47.72</ele><time>2026-08-20T17:07:20Z</time></trkpt><trkpt lat="59.1088909842" lon="30.4811978247"><ele>47.72</ele><time>2026-08-20T17:07:34Z</time></trkpt><trkpt lat="59.1088617314" lon="30.4809875228"><ele>47.72</ele><time>2026-08-20T17:07:45Z</time></trkpt><trkpt lat="59.1088502482" lon="30.4809223115"><ele>47.72</ele><time>2026-08-20T17:07:57Z</time></trkpt><trkpt lat="59.1088504996" lon="30.4809639696"><ele>47.72</ele><time>2026-08-20T17:08:09Z</time></trkpt><trkpt lat="59.1088731308" lon="30.4811544903"><ele>47.72</ele><time>2026-08-20T17:08:20Z</time></trkpt><trkpt lat="59.1088883858" lon="30.4813080467"><ele>47.72</ele><time>2026-08-20T17:08:26Z</time></trkpt><trkpt lat="59.1089108493" lon="30.4815444164"><ele>47.72</ele><time>2026-08-20T17:08:37Z</time></trkpt><trkpt lat="59.1089213267" lon="30.4816150758"><ele>47.72</ele><time>2026-08-20T17:08:40Z</time></trkpt><trkpt lat="59.1089334805" lon="30.4817199335"><ele>47.72</ele><time>2026-08-20T17:08:44Z</time></trkpt><trkpt lat="59.1089492384" lon="30.4819174111"><ele>47.72</ele><time>2026-08-20T17:08:54Z</time></trkpt><trkpt lat="59.1089489870" lon="30.4820055887"><ele>47.72</ele><time>2026-08-20T17:08:58Z</time></trkpt><trkpt lat="59.1089691035" lon="30.4822057486"><ele>47.72</ele><time>2026-08-20T17:09:10Z</time></trkpt><trkpt lat="59.1089712828" lon="30.4823189881"><ele>47.72</ele><time>2026-08-20T17:09:15Z</time></trkpt><trkpt lat="59.1089704446" lon="30.4825427849"><ele>47.72</ele><time>2026-08-20T17:09:27Z</time></trkpt><trkpt lat="59.1089863703" lon="30.4826426134"><ele>47.72</ele><time>2026-08-20T17:09:33Z</time></trkpt><trkpt lat="59.1089906450" lon="30.4828063957"><ele>47.72</ele><time>2026-08-20T17:09:43Z</time></trkpt><trkpt lat="59.1089896392" lon="30.4828990158"><ele>47.72</ele><time>2026-08-20T17:09:48Z</time></trkpt><trkpt lat="59.1089758091" lon="30.4830908775"><ele>48.20</ele><time>2026-08-20T17:10:00Z</time></trkpt><trkpt lat="59.1089781560" lon="30.4831685778"><ele>48.20</ele><time>2026-08-20T17:10:15Z</time></trkpt><trkpt lat="59.1089346539" lon="30.4831680749"><ele>48.20</ele><time>2026-08-20T17:10:29Z</time></trkpt><trkpt lat="59.1088993661" lon="30.4833142553"><ele>48.20</ele><time>2026-08-20T17:10:41Z</time></trkpt><trkpt lat="59.1088972706" lon="30.4834200349"><ele>48.20</ele><time>2026-08-20T17:10:53Z</time></trkpt><trkpt lat="59.1088977735" lon="30.4834741820"><ele>48.20</ele><time>2026-08-20T17:11:07Z</time></trkpt><trkpt lat="59.1088930797" lon="30.4835409019"><ele>48.20</ele><time>2026-08-20T17:11:21Z</time></trkpt><trkpt lat="59.1088940017" lon="30.4835763574"><ele>48.68</ele><time>2026-08-20T17:11:39Z</time></trkpt><trkpt lat="59.1088526789" lon="30.4835700709"><ele>48.68</ele><time>2026-08-20T17:11:50Z</time></trkpt><trkpt lat="59.1087768227" lon="30.4835994914"><ele>48.68</ele><time>2026-08-20T17:12:00Z</time></trkpt><trkpt lat="59.1086394433" lon="30.4836186860"><ele>48.68</ele><time>2026-08-20T17:12:13Z</time></trkpt><trkpt lat="59.1085578874" lon="30.4836115614"><ele>48.68</ele><time>2026-08-20T17:12:25Z</time></trkpt><trkpt lat="59.1084985435" lon="30.4836271517"><ele>48.68</ele><time>2026-08-20T17:12:33Z</time></trkpt><trkpt lat="59.1084039956" lon="30.4836235475"><ele>48.68</ele><time>2026-08-20T17:12:46Z</time></trkpt><trkpt lat="59.1083636787" lon="30.4836625233"><ele>49.16</ele><time>2026-08-20T17:13:00Z</time></trkpt><trkpt lat="59.1083536204" lon="30.4836619366"><ele>49.16</ele><time>2026-08-20T17:13:22Z</time></trkpt><trkpt lat="59.1082713101" lon="30.4837090429"><ele>50.13</ele><time>2026-08-20T17:13:35Z</time></trkpt><trkpt lat="59.1081894189" lon="30.4837551434"><ele>50.13</ele><time>2026-08-20T17:13:48Z</time></trkpt><trkpt lat="59.1081156582" lon="30.4837595019"><ele>49.16</ele><time>2026-08-20T17:14:01Z</time></trkpt><trkpt lat="59.1080178414" lon="30.4837785289"><ele>49.16</ele><time>2026-08-20T17:14:15Z</time></trkpt><trkpt lat="59.1079184320" lon="30.4837502819"><ele>49.16</ele><time>2026-08-20T17:14:28Z</time></trkpt><trkpt lat="59.1079035960" lon="30.4837557301"><ele>49.16</ele><time>2026-08-20T17:14:30Z</time></trkpt><trkpt lat="59.1078092158" lon="30.4837547243"><ele>49.16</ele><time>2026-08-20T17:14:43Z</time></trkpt><trkpt lat="59.1077827290" lon="30.4838170018"><ele>49.65</ele><time>2026-08-20T17:14:54Z</time></trkpt><trkpt lat="59.1078015883" lon="30.4839204345"><ele>49.65</ele><time>2026-08-20T17:15:04Z</time></trkpt><trkpt lat="59.1077768616" lon="30.4840542935"><ele>49.65</ele><time>2026-08-20T17:15:15Z</time></trkpt><trkpt lat="59.1078023426" lon="30.4842337500"><ele>49.65</ele><time>2026-08-20T17:15:27Z</time></trkpt><trkpt lat="59.1078040190" lon="30.4842777550"><ele>49.65</ele><time>2026-08-20T17:15:29Z</time></trkpt><trkpt lat="59.1078014206" lon="30.4844609834"><ele>50.13</ele><time>2026-08-20T17:15:41Z</time></trkpt><trkpt lat="59.1078342777" lon="30.4846282862"><ele>50.13</ele><time>2026-08-20T17:15:54Z</time></trkpt><trkpt lat="59.1078724153" lon="30.4847802501"><ele>50.13</ele><time>2026-08-20T17:16:05Z</time></trkpt><trkpt lat="59.1078777798" lon="30.4849258438"><ele>50.13</ele><time>2026-08-20T17:16:16Z</time></trkpt><trkpt lat="59.1078934539" lon="30.4851266742"><ele>49.16</ele><time>2026-08-20T17:16:29Z</time></trkpt><trkpt lat="59.1079247184" lon="30.4853583500"><ele>49.65</ele><time>2026-08-20T17:16:41Z</time></trkpt><trkpt lat="59.1079071164" lon="30.4855723400"><ele>49.65</ele><time>2026-08-20T17:16:53Z</time></trkpt><trkpt lat="59.1078804620" lon="30.4857141618"><ele>49.65</ele><time>2026-08-20T17:17:05Z</time></trkpt><trkpt lat="59.1078948788" lon="30.4858508706"><ele>49.65</ele><time>2026-08-20T17:17:18Z</time></trkpt><trkpt lat="59.1079071164" lon="30.4860007390"><ele>49.65</ele><time>2026-08-20T17:17:30Z</time></trkpt><trkpt lat="59.1079344414" lon="30.4861511942"><ele>50.13</ele><time>2026-08-20T17:17:43Z</time></trkpt><trkpt lat="59.1079424042" lon="30.4863047507"><ele>50.13</ele><time>2026-08-20T17:17:53Z</time></trkpt><trkpt lat="59.1079369560" lon="30.4864587262"><ele>50.13</ele><time>2026-08-20T17:18:02Z</time></trkpt><trkpt lat="59.1079253890" lon="30.4865826108"><ele>50.13</ele><time>2026-08-20T17:18:13Z</time></trkpt><trkpt lat="59.1079324298" lon="30.4867463931"><ele>50.13</ele><time>2026-08-20T17:18:23Z</time></trkpt><trkpt lat="59.1079489421" lon="30.4868436232"><ele>50.13</ele><time>2026-08-20T17:18:36Z</time></trkpt><trkpt lat="59.1079721600" lon="30.4870352335"><ele>50.61</ele><time>2026-08-20T17:18:49Z</time></trkpt><trkpt lat="59.1079936177" lon="30.4871922266"><ele>50.61</ele><time>2026-08-20T17:19:02Z</time></trkpt><trkpt lat="59.1080071963" lon="30.4873937275"><ele>50.61</ele><time>2026-08-20T17:19:14Z</time></trkpt><trkpt lat="59.1079946235" lon="30.4875863437"><ele>50.61</ele><time>2026-08-20T17:19:26Z</time></trkpt><trkpt lat="59.1079910193" lon="30.4876805563"><ele>50.61</ele><time>2026-08-20T17:19:37Z</time></trkpt><trkpt lat="59.1080051847" lon="30.4877743497"><ele>50.61</ele><time>2026-08-20T17:19:48Z</time></trkpt><trkpt lat="59.1080167517" lon="30.4879161716"><ele>50.61</ele><time>2026-08-20T17:20:00Z</time></trkpt><trkpt lat="59.1080221161" lon="30.4879673850"><ele>50.61</ele><time>2026-08-20T17:20:07Z</time></trkpt><trkpt lat="59.1080411430" lon="30.4881433211"><ele>51.09</ele><time>2026-08-20T17:20:19Z</time></trkpt><trkpt lat="59.1080516204" lon="30.4882786889"><ele>51.09</ele><time>2026-08-20T17:20:30Z</time></trkpt><trkpt lat="59.1080495249" lon="30.4884114582"><ele>51.09</ele><time>2026-08-20T17:20:42Z</time></trkpt><trkpt lat="59.1080444120" lon="30.4884943552"><ele>51.09</ele><time>2026-08-20T17:20:53Z</time></trkpt><trkpt lat="59.1080444120" lon="30.4885069281"><ele>51.09</ele><time>2026-08-20T17:21:09Z</time></trkpt><trkpt lat="59.1080502793" lon="30.4885705467"><ele>51.09</ele><time>2026-08-20T17:21:21Z</time></trkpt><trkpt lat="59.1080645286" lon="30.4886223469"><ele>51.09</ele><time>2026-08-20T17:21:30Z</time></trkpt><trkpt lat="59.1080755927" lon="30.4887582175"><ele>50.61</ele><time>2026-08-20T17:21:42Z</time></trkpt><trkpt lat="59.1080698092" lon="30.4888550285"><ele>51.09</ele><time>2026-08-20T17:21:52Z</time></trkpt><trkpt lat="59.1080776043" lon="30.4889464751"><ele>51.09</ele><time>2026-08-20T17:22:01Z</time></trkpt><trkpt lat="59.1080985591" lon="30.4890662525"><ele>51.09</ele><time>2026-08-20T17:22:13Z</time></trkpt><trkpt lat="59.1080935299" lon="30.4891346488"><ele>51.09</ele><time>2026-08-20T17:22:24Z</time></trkpt><trkpt lat="59.1081123054" lon="30.4892495647"><ele>51.09</ele><time>2026-08-20T17:22:35Z</time></trkpt><trkpt lat="59.1081209388" lon="30.4893138539"><ele>51.09</ele><time>2026-08-20T17:22:47Z</time></trkpt><trkpt lat="59.1081259679" lon="30.4893427715"><ele>51.09</ele><time>2026-08-20T17:22:59Z</time></trkpt><trkpt lat="59.1081297398" lon="30.4893787298"><ele>51.09</ele><time>2026-08-20T17:23:12Z</time></trkpt><trkpt lat="59.1081315000" lon="30.4894479644"><ele>51.09</ele><time>2026-08-20T17:23:26Z</time></trkpt><trkpt lat="59.1081268061" lon="30.4895409197"><ele>51.57</ele><time>2026-08-20T17:23:39Z</time></trkpt><trkpt lat="59.1081335116" lon="30.4896134231"><ele>51.57</ele><time>2026-08-20T17:23:50Z</time></trkpt><trkpt lat="59.1081311647" lon="30.4896758683"><ele>51.57</ele><time>2026-08-20T17:23:55Z</time></trkpt><trkpt lat="59.1081414744" lon="30.4897157662"><ele>51.57</ele><time>2026-08-20T17:24:05Z</time></trkpt><trkpt lat="59.1081351880" lon="30.4897746909"><ele>51.57</ele><time>2026-08-20T17:24:17Z</time></trkpt><trkpt lat="59.1081204358" lon="30.4898445122"><ele>51.57</ele><time>2026-08-20T17:24:29Z</time></trkpt><trkpt lat="59.1081318352" lon="30.4899322707"><ele>51.57</ele><time>2026-08-20T17:24:42Z</time></trkpt><trkpt lat="59.1081537958" lon="30.4900015891"><ele>52.05</ele><time>2026-08-20T17:24:57Z</time></trkpt><trkpt lat="59.1081532929" lon="30.4900225438"><ele>52.05</ele><time>2026-08-20T17:25:04Z</time></trkpt><trkpt lat="59.1081588250" lon="30.4901393037"><ele>52.05</ele><time>2026-08-20T17:25:15Z</time></trkpt><trkpt lat="59.1081745829" lon="30.4903361108"><ele>52.05</ele><time>2026-08-20T17:25:27Z</time></trkpt><trkpt lat="59.1081786063" lon="30.4904578999"><ele>52.05</ele><time>2026-08-20T17:25:39Z</time></trkpt><trkpt lat="59.1081881616" lon="30.4905831255"><ele>52.05</ele><time>2026-08-20T17:25:49Z</time></trkpt><trkpt lat="59.1081920173" lon="30.4908432160"><ele>52.53</ele><time>2026-08-20T17:26:02Z</time></trkpt><trkpt lat="59.1081986390" lon="30.4910484049"><ele>52.53</ele><time>2026-08-20T17:26:15Z</time></trkpt><trkpt lat="59.1082183365" lon="30.4911822639"><ele>52.53</ele><time>2026-08-20T17:26:27Z</time></trkpt><trkpt lat="59.1082468349" lon="30.4912931565"><ele>52.53</ele><time>2026-08-20T17:26:38Z</time></trkpt><trkpt lat="59.1082467511" lon="30.4913886264"><ele>52.53</ele><time>2026-08-20T17:26:51Z</time></trkpt><trkpt lat="59.1082653590" lon="30.4915134329"><ele>52.53</ele><time>2026-08-20T17:27:03Z</time></trkpt><trkpt lat="59.1082630120" lon="30.4917514790"><ele>52.53</ele><time>2026-08-20T17:27:14Z</time></trkpt><trkpt lat="59.1082736570" lon="30.4919300135"><ele>52.53</ele><time>2026-08-20T17:27:25Z</time></trkpt><trkpt lat="59.1082746629" lon="30.4921227973"><ele>52.53</ele><time>2026-08-20T17:27:37Z</time></trkpt><trkpt lat="59.1082553007" lon="30.4922367912"><ele>53.01</ele><time>2026-08-20T17:27:47Z</time></trkpt><trkpt lat="59.1082463320" lon="30.4922893457"><ele>53.01</ele><time>2026-08-20T17:28:00Z</time></trkpt><trkpt lat="59.1082489304" lon="30.4923100490"><ele>53.01</ele><time>2026-08-20T17:28:01Z</time></trkpt><trkpt lat="59.1082722321" lon="30.4924538825"><ele>53.01</ele><time>2026-08-20T17:28:12Z</time></trkpt><trkpt lat="59.1083086934" lon="30.4925645236"><ele>53.01</ele><time>2026-08-20T17:28:23Z</time></trkpt><trkpt lat="59.1083263792" lon="30.4926624242"><ele>53.01</ele><time>2026-08-20T17:28:33Z</time></trkpt><trkpt lat="59.1083256248" lon="30.4927796032"><ele>53.01</ele><time>2026-08-20T17:28:42Z</time></trkpt><trkpt lat="59.1083140578" lon="30.4930023942"><ele>53.01</ele><time>2026-08-20T17:28:53Z</time></trkpt><trkpt lat="59.1083304025" lon="30.4931245185"><ele>53.01</ele><time>2026-08-20T17:29:06Z</time></trkpt><trkpt lat="59.1083368566" lon="30.4932507500"><ele>53.01</ele><time>2026-08-20T17:29:18Z</time></trkpt><trkpt lat="59.1083300672" lon="30.4933923203"><ele>53.01</ele><time>2026-08-20T17:29:31Z</time></trkpt><trkpt lat="59.1083256248" lon="30.4933964275"><ele>53.01</ele><time>2026-08-20T17:29:46Z</time></trkpt><trkpt lat="59.1083255410" lon="30.4934052285"><ele>53.01</ele><time>2026-08-20T17:30:14Z</time></trkpt><trkpt lat="59.1083195060" lon="30.4934113473"><ele>53.01</ele><time>2026-08-20T17:30:41Z</time></trkpt><trkpt lat="59.1083354317" lon="30.4934053961"><ele>53.01</ele><time>2026-08-20T17:31:03Z</time></trkpt><trkpt lat="59.1083372757" lon="30.4934703559"><ele>53.49</ele><time>2026-08-20T17:31:18Z</time></trkpt><trkpt lat="59.1083645169" lon="30.4935912229"><ele>53.01</ele><time>2026-08-20T17:31:30Z</time></trkpt><trkpt lat="59.1083709709" lon="30.4936990980"><ele>53.01</ele><time>2026-08-20T17:31:41Z</time></trkpt><trkpt lat="59.1083837114" lon="30.4937872756"><ele>53.01</ele><time>2026-08-20T17:31:53Z</time></trkpt><trkpt lat="59.1083854716" lon="30.4938050453"><ele>53.01</ele><time>2026-08-20T17:32:06Z</time></trkpt><trkpt lat="59.1084328294" lon="30.4938025307"><ele>53.97</ele><time>2026-08-20T17:32:20Z</time></trkpt><trkpt lat="59.1084907483" lon="30.4937850125"><ele>53.97</ele><time>2026-08-20T17:32:32Z</time></trkpt><trkpt lat="59.1085499246" lon="30.4937775526"><ele>53.97</ele><time>2026-08-20T17:32:45Z</time></trkpt><trkpt lat="59.1086273734" lon="30.4936975054"><ele>53.97</ele><time>2026-08-20T17:32:58Z</time></trkpt><trkpt lat="59.1086741444" lon="30.4936612956"><ele>53.97</ele><time>2026-08-20T17:33:11Z</time></trkpt><trkpt lat="59.1087002959" lon="30.4936377425"><ele>53.97</ele><time>2026-08-20T17:33:35Z</time></trkpt><trkpt lat="59.1087197419" lon="30.4936345574"><ele>53.97</ele><time>2026-08-20T17:33:56Z</time></trkpt><trkpt lat="59.1087905690" lon="30.4936788138"><ele>53.97</ele><time>2026-08-20T17:34:10Z</time></trkpt><trkpt lat="59.1088409442" lon="30.4936832562"><ele>53.97</ele><time>2026-08-20T17:34:24Z</time></trkpt><trkpt lat="59.1088939179" lon="30.4936786462"><ele>53.97</ele><time>2026-08-20T17:34:36Z</time></trkpt><trkpt lat="59.1089252662" lon="30.4936524946"><ele>53.97</ele><time>2026-08-20T17:34:49Z</time></trkpt><trkpt lat="59.1089587938" lon="30.4936250020"><ele>53.97</ele><time>2026-08-20T17:35:00Z</time></trkpt><trkpt lat="59.1089898907" lon="30.4935488105"><ele>53.97</ele><time>2026-08-20T17:35:13Z</time></trkpt><trkpt lat="59.1090277769" lon="30.4935198929"><ele>53.97</ele><time>2026-08-20T17:35:25Z</time></trkpt><trkpt lat="59.1091262642" lon="30.4936308693"><ele>53.97</ele><time>2026-08-20T17:35:38Z</time></trkpt><trkpt lat="59.1091819201" lon="30.4936193861"><ele>53.97</ele><time>2026-08-20T17:35:54Z</time></trkpt><trkpt lat="59.1092427727" lon="30.4936256725"><ele>53.97</ele><time>2026-08-20T17:36:05Z</time></trkpt><trkpt lat="59.1093068942" lon="30.4936315399"><ele>53.97</ele><time>2026-08-20T17:36:19Z</time></trkpt><trkpt lat="59.1093616281" lon="30.4935883731"><ele>53.97</ele><time>2026-08-20T17:36:31Z</time></trkpt><trkpt lat="59.1094337124" lon="30.4935308732"><ele>54.45</ele><time>2026-08-20T17:36:44Z</time></trkpt><trkpt lat="59.1095268354" lon="30.4934748821"><ele>54.45</ele><time>2026-08-20T17:36:56Z</time></trkpt><trkpt lat="59.1095725168" lon="30.4934349004"><ele>54.45</ele><time>2026-08-20T17:37:06Z</time></trkpt><trkpt lat="59.1096122470" lon="30.4933912307"><ele>54.45</ele><time>2026-08-20T17:37:18Z</time></trkpt><trkpt lat="59.1096642986" lon="30.4933706112"><ele>54.45</ele><time>2026-08-20T17:37:33Z</time></trkpt><trkpt lat="59.1096776258" lon="30.4933467228"><ele>53.97</ele><time>2026-08-20T17:37:47Z</time></trkpt><trkpt lat="59.1097334493" lon="30.4933088366"><ele>53.97</ele><time>2026-08-20T17:38:02Z</time></trkpt><trkpt lat="59.1097850818" lon="30.4931808449"><ele>53.97</ele><time>2026-08-20T17:38:14Z</time></trkpt><trkpt lat="59.1098345350" lon="30.4932111874"><ele>53.97</ele><time>2026-08-20T17:38:27Z</time></trkpt><trkpt lat="59.1098730080" lon="30.4931598902"><ele>53.97</ele><time>2026-08-20T17:38:36Z</time></trkpt><trkpt lat="59.1099569108" lon="30.4929985385"><ele>53.97</ele><time>2026-08-20T17:38:49Z</time></trkpt><trkpt lat="59.1099740937" lon="30.4929945152"><ele>53.97</ele><time>2026-08-20T17:39:11Z</time></trkpt><trkpt lat="59.1099874210" lon="30.4929945152"><ele>53.97</ele><time>2026-08-20T17:39:36Z</time></trkpt><trkpt lat="59.1100053582" lon="30.4929922521"><ele>53.97</ele><time>2026-08-20T17:39:58Z</time></trkpt><trkpt lat="59.1100135725" lon="30.4929992091"><ele>53.97</ele><time>2026-08-20T17:40:20Z</time></trkpt><trkpt lat="59.1100136563" lon="30.4930152185"><ele>53.97</ele><time>2026-08-20T17:40:40Z</time></trkpt><trkpt lat="59.1100491956" lon="30.4931145441"><ele>54.45</ele><time>2026-08-20T17:40:52Z</time></trkpt><trkpt lat="59.1100574099" lon="30.4931358341"><ele>54.45</ele><time>2026-08-20T17:40:54Z</time></trkpt><trkpt lat="59.1100864112" lon="30.4931638297"><ele>54.45</ele><time>2026-08-20T17:41:06Z</time></trkpt><trkpt lat="59.1100977268" lon="30.4932981916"><ele>54.45</ele><time>2026-08-20T17:41:18Z</time></trkpt><trkpt lat="59.1101393849" lon="30.4933875427"><ele>54.45</ele><time>2026-08-20T17:41:29Z</time></trkpt><trkpt lat="59.1101449169" lon="30.4934064858"><ele>54.45</ele><time>2026-08-20T17:41:31Z</time></trkpt><trkpt lat="59.1101387143" lon="30.4934657458"><ele>54.45</ele><time>2026-08-20T17:41:44Z</time></trkpt><trkpt lat="59.1100852378" lon="30.4935928155"><ele>54.45</ele><time>2026-08-20T17:41:55Z</time></trkpt><trkpt lat="59.1100568231" lon="30.4936483875"><ele>54.45</ele><time>2026-08-20T17:42:09Z</time></trkpt><trkpt lat="59.1100388020" lon="30.4937133472"><ele>54.45</ele><time>2026-08-20T17:42:20Z</time></trkpt><trkpt lat="59.1100474354" lon="30.4938223958"><ele>54.45</ele><time>2026-08-20T17:42:31Z</time></trkpt><trkpt lat="59.1100602597" lon="30.4939437658"><ele>54.45</ele><time>2026-08-20T17:42:44Z</time></trkpt><trkpt lat="59.1100730840" lon="30.4940645490"><ele>55.41</ele><time>2026-08-20T17:42:55Z</time></trkpt><trkpt lat="59.1100688092" lon="30.4941823985"><ele>55.41</ele><time>2026-08-20T17:43:07Z</time></trkpt><trkpt lat="59.1100899316" lon="30.4943108093"><ele>55.41</ele><time>2026-08-20T17:43:21Z</time></trkpt><trkpt lat="59.1100914404" lon="30.4944522120"><ele>55.41</ele><time>2026-08-20T17:43:33Z</time></trkpt><trkpt lat="59.1100660432" lon="30.4945557285"><ele>55.41</ele><time>2026-08-20T17:43:44Z</time></trkpt><trkpt lat="59.1100457590" lon="30.4946897551"><ele>55.41</ele><time>2026-08-20T17:43:57Z</time></trkpt><trkpt lat="59.1100236308" lon="30.4947941098"><ele>55.41</ele><time>2026-08-20T17:44:09Z</time></trkpt><trkpt lat="59.1100293305" lon="30.4948440660"><ele>55.41</ele><time>2026-08-20T17:44:24Z</time></trkpt><trkpt lat="59.1100321803" lon="30.4948596563"><ele>55.41</ele><time>2026-08-20T17:44:40Z</time></trkpt><trkpt lat="59.1100509558" lon="30.4949055053"><ele>55.41</ele><time>2026-08-20T17:44:53Z</time></trkpt><trkpt lat="59.1100677196" lon="30.4949394520"><ele>55.89</ele><time>2026-08-20T17:45:22Z</time></trkpt><trkpt lat="59.1100713238" lon="30.4949678667"><ele>55.89</ele><time>2026-08-20T17:45:40Z</time></trkpt><trkpt lat="59.1100745928" lon="30.4949909169"><ele>55.89</ele><time>2026-08-20T17:46:10Z</time></trkpt><trkpt lat="59.1100471839" lon="30.4950605705"><ele>55.89</ele><time>2026-08-20T17:46:21Z</time></trkpt><trkpt lat="59.1100033466" lon="30.4952093493"><ele>55.89</ele><time>2026-08-20T17:46:35Z</time></trkpt><trkpt lat="59.1099678911" lon="30.4953486566"><ele>56.37</ele><time>2026-08-20T17:46:46Z</time></trkpt><trkpt lat="59.1099551506" lon="30.4954355769"><ele>56.37</ele><time>2026-08-20T17:46:57Z</time></trkpt><trkpt lat="59.1099364590" lon="30.4955274425"><ele>56.37</ele><time>2026-08-20T17:47:10Z</time></trkpt><trkpt lat="59.1099419910" lon="30.4955979344"><ele>56.37</ele><time>2026-08-20T17:47:24Z</time></trkpt><trkpt lat="59.1099222098" lon="30.4956662469"><ele>56.37</ele><time>2026-08-20T17:47:36Z</time></trkpt><trkpt lat="59.1099248920" lon="30.4957416840"><ele>56.37</ele><time>2026-08-20T17:47:49Z</time></trkpt><trkpt lat="59.1099465173" lon="30.4958761297"><ele>56.37</ele><time>2026-08-20T17:48:02Z</time></trkpt><trkpt lat="59.1099683940" lon="30.4959493037"><ele>56.86</ele><time>2026-08-20T17:48:14Z</time></trkpt><trkpt lat="59.1099911090" lon="30.4960352182"><ele>56.86</ele><time>2026-08-20T17:48:25Z</time></trkpt><trkpt lat="59.1100143269" lon="30.4961306881"><ele>56.86</ele><time>2026-08-20T17:48:36Z</time></trkpt><trkpt lat="59.1100338567" lon="30.4962337855"><ele>56.86</ele><time>2026-08-20T17:48:47Z</time></trkpt><trkpt lat="59.1100434959" lon="30.4962896928"><ele>56.86</ele><time>2026-08-20T17:48:53Z</time></trkpt><trkpt lat="59.1100716591" lon="30.4963634536"><ele>56.86</ele><time>2026-08-20T17:49:05Z</time></trkpt><trkpt lat="59.1100862436" lon="30.4964376334"><ele>56.86</ele><time>2026-08-20T17:49:17Z</time></trkpt><trkpt lat="59.1101054382" lon="30.4965353664"><ele>55.89</ele><time>2026-08-20T17:49:28Z</time></trkpt><trkpt lat="59.1101245489" lon="30.4965918604"><ele>56.86</ele><time>2026-08-20T17:49:43Z</time></trkpt><trkpt lat="59.1101376247" lon="30.4966615979"><ele>56.37</ele><time>2026-08-20T17:49:55Z</time></trkpt><trkpt lat="59.1101610102" lon="30.4968278948"><ele>56.86</ele><time>2026-08-20T17:50:08Z</time></trkpt><trkpt lat="59.1101652011" lon="30.4969175812"><ele>56.86</ele><time>2026-08-20T17:50:20Z</time></trkpt><trkpt lat="59.1101239622" lon="30.4969853070"><ele>57.34</ele><time>2026-08-20T17:50:31Z</time></trkpt><trkpt lat="59.1101358645" lon="30.4970491771"><ele>57.34</ele><time>2026-08-20T17:50:41Z</time></trkpt><trkpt lat="59.1101553943" lon="30.4970756639"><ele>57.34</ele><time>2026-08-20T17:50:51Z</time></trkpt><trkpt lat="59.1101833899" lon="30.4971402884"><ele>57.34</ele><time>2026-08-20T17:51:04Z</time></trkpt><trkpt lat="59.1102028359" lon="30.4971748218"><ele>57.34</ele><time>2026-08-20T17:51:20Z</time></trkpt><trkpt lat="59.1102041770" lon="30.4971905798"><ele>57.34</ele><time>2026-08-20T17:51:46Z</time></trkpt><trkpt lat="59.1102047637" lon="30.4972361773"><ele>57.82</ele><time>2026-08-20T17:51:57Z</time></trkpt><trkpt lat="59.1101864073" lon="30.4973480757"><ele>57.82</ele><time>2026-08-20T17:52:12Z</time></trkpt><trkpt lat="59.1101398040" lon="30.4974480718"><ele>57.82</ele><time>2026-08-20T17:52:24Z</time></trkpt><trkpt lat="59.1101317573" lon="30.4975025542"><ele>57.82</ele><time>2026-08-20T17:52:38Z</time></trkpt><trkpt lat="59.1101387143" lon="30.4975654185"><ele>58.78</ele><time>2026-08-20T17:52:58Z</time></trkpt><trkpt lat="59.1101288237" lon="30.4976447113"><ele>58.78</ele><time>2026-08-20T17:53:11Z</time></trkpt><trkpt lat="59.1101181787" lon="30.4977739602"><ele>58.78</ele><time>2026-08-20T17:53:25Z</time></trkpt><trkpt lat="59.1101327632" lon="30.4978927318"><ele>58.78</ele><time>2026-08-20T17:53:38Z</time></trkpt><trkpt lat="59.1101477668" lon="30.4979887884"><ele>58.78</ele><time>2026-08-20T17:53:58Z</time></trkpt><trkpt lat="59.1101508681" lon="30.4979866091"><ele>59.26</ele><time>2026-08-20T17:54:19Z</time></trkpt><trkpt lat="59.1101613455" lon="30.4979941528"><ele>59.26</ele><time>2026-08-20T17:54:53Z</time></trkpt><trkpt lat="59.1101512872" lon="30.4980435222"><ele>58.30</ele><time>2026-08-20T17:55:16Z</time></trkpt><trkpt lat="59.1101479344" lon="30.4981293529"><ele>58.30</ele><time>2026-08-20T17:55:30Z</time></trkpt><trkpt lat="59.1101774387" lon="30.4981936421"><ele>58.30</ele><time>2026-08-20T17:55:41Z</time></trkpt><trkpt lat="59.1101829708" lon="30.4982461128"><ele>58.30</ele><time>2026-08-20T17:55:57Z</time></trkpt><trkpt lat="59.1101904307" lon="30.4982697498"><ele>58.30</ele><time>2026-08-20T17:56:17Z</time></trkpt><trkpt lat="59.1102030035" lon="30.4982912913"><ele>58.30</ele><time>2026-08-20T17:56:41Z</time></trkpt><trkpt lat="59.1102187615" lon="30.4983176105"><ele>58.78</ele><time>2026-08-20T17:57:13Z</time></trkpt><trkpt lat="59.1102227848" lon="30.4983161855"><ele>58.78</ele><time>2026-08-20T17:57:47Z</time></trkpt><trkpt lat="59.1102185939" lon="30.4983433429"><ele>58.78</ele><time>2026-08-20T17:58:16Z</time></trkpt><trkpt lat="59.1102138162" lon="30.4983539879"><ele>59.26</ele><time>2026-08-20T17:58:46Z</time></trkpt><trkpt lat="59.1102190129" lon="30.4983591847"><ele>59.26</ele><time>2026-08-20T17:59:10Z</time></trkpt><trkpt lat="59.1102249641" lon="30.4983785469"><ele>59.26</ele><time>2026-08-20T17:59:39Z</time></trkpt><trkpt lat="59.1102356929" lon="30.4984152596"><ele>59.26</ele><time>2026-08-20T18:00:00Z</time></trkpt><trkpt lat="59.1102421470" lon="30.4984791297"><ele>59.26</ele><time>2026-08-20T18:00:12Z</time></trkpt><trkpt lat="59.1102097929" lon="30.4985721689"><ele>59.26</ele><time>2026-08-20T18:00:24Z</time></trkpt><trkpt lat="59.1102278139" lon="30.4986792058"><ele>59.26</ele><time>2026-08-20T18:00:35Z</time></trkpt><trkpt lat="59.1101978067" lon="30.4988423176"><ele>59.26</ele><time>2026-08-20T18:00:48Z</time></trkpt><trkpt lat="59.1101439949" lon="30.4989931919"><ele>59.26</ele><time>2026-08-20T18:01:02Z</time></trkpt><trkpt lat="59.1101351939" lon="30.4991366062"><ele>59.26</ele><time>2026-08-20T18:01:15Z</time></trkpt><trkpt lat="59.1101465095" lon="30.4991675355"><ele>59.26</ele><time>2026-08-20T18:01:27Z</time></trkpt><trkpt lat="59.1101246327" lon="30.4992884863"><ele>59.26</ele><time>2026-08-20T18:01:47Z</time></trkpt><trkpt lat="59.1101133171" lon="30.4994278774"><ele>59.26</ele><time>2026-08-20T18:02:01Z</time></trkpt><trkpt lat="59.1101328470" lon="30.4995095171"><ele>59.26</ele><time>2026-08-20T18:02:17Z</time></trkpt><trkpt lat="59.1101756785" lon="30.4995819367"><ele>59.26</ele><time>2026-08-20T18:02:29Z</time></trkpt><trkpt lat="59.1101828869" lon="30.4996489920"><ele>59.26</ele><time>2026-08-20T18:02:42Z</time></trkpt><trkpt lat="59.1101574898" lon="30.4996690247"><ele>59.26</ele><time>2026-08-20T18:02:57Z</time></trkpt><trkpt lat="59.1101729125" lon="30.4997160472"><ele>59.74</ele><time>2026-08-20T18:03:09Z</time></trkpt><trkpt lat="59.1101918556" lon="30.4998383392"><ele>59.26</ele><time>2026-08-20T18:03:22Z</time></trkpt><trkpt lat="59.1101980582" lon="30.4999427777"><ele>59.26</ele><time>2026-08-20T18:03:37Z</time></trkpt><trkpt lat="59.1101941187" lon="30.5000579450"><ele>59.26</ele><time>2026-08-20T18:03:49Z</time></trkpt><trkpt lat="59.1102158278" lon="30.5001567677"><ele>59.26</ele><time>2026-08-20T18:04:02Z</time></trkpt><trkpt lat="59.1102251317" lon="30.5002502259"><ele>59.26</ele><time>2026-08-20T18:04:15Z</time></trkpt><trkpt lat="59.1102351062" lon="30.5003348831"><ele>59.26</ele><time>2026-08-20T18:04:28Z</time></trkpt><trkpt lat="59.1102349386" lon="30.5003964063"><ele>59.26</ele><time>2026-08-20T18:04:40Z</time></trkpt><trkpt lat="59.1102318373" lon="30.5004498828"><ele>59.26</ele><time>2026-08-20T18:04:52Z</time></trkpt><trkpt lat="59.1102069430" lon="30.5005901121"><ele>59.26</ele><time>2026-08-20T18:05:03Z</time></trkpt><trkpt lat="59.1101626027" lon="30.5007063691"><ele>59.26</ele><time>2026-08-20T18:05:16Z</time></trkpt><trkpt lat="59.1101064440" lon="30.5008348636"><ele>59.26</ele><time>2026-08-20T18:05:30Z</time></trkpt><trkpt lat="59.1100868303" lon="30.5008966383"><ele>59.26</ele><time>2026-08-20T18:05:41Z</time></trkpt><trkpt lat="59.1100870818" lon="30.5009352788"><ele>59.26</ele><time>2026-08-20T18:05:55Z</time></trkpt><trkpt lat="59.1100998223" lon="30.5010137334"><ele>59.26</ele><time>2026-08-20T18:06:10Z</time></trkpt><trkpt lat="59.1101170052" lon="30.5010537989"><ele>59.74</ele><time>2026-08-20T18:06:23Z</time></trkpt><trkpt lat="59.1101383790" lon="30.5011159088"><ele>59.74</ele><time>2026-08-20T18:06:35Z</time></trkpt><trkpt lat="59.1101680510" lon="30.5011735763"><ele>59.74</ele><time>2026-08-20T18:06:49Z</time></trkpt><trkpt lat="59.1102112178" lon="30.5012249574"><ele>59.74</ele><time>2026-08-20T18:07:02Z</time></trkpt><trkpt lat="59.1102326754" lon="30.5012801941"><ele>59.74</ele><time>2026-08-20T18:07:13Z</time></trkpt><trkpt lat="59.1102812905" lon="30.5014000554"><ele>59.74</ele><time>2026-08-20T18:07:24Z</time></trkpt><trkpt lat="59.1102921870" lon="30.5015508458"><ele>59.74</ele><time>2026-08-20T18:07:35Z</time></trkpt><trkpt lat="59.1102580726" lon="30.5016152188"><ele>59.74</ele><time>2026-08-20T18:07:46Z</time></trkpt><trkpt lat="59.1102559771" lon="30.5016905721"><ele>59.74</ele><time>2026-08-20T18:07:58Z</time></trkpt><trkpt lat="59.1102374531" lon="30.5017441325"><ele>59.74</ele><time>2026-08-20T18:08:08Z</time></trkpt><trkpt lat="59.1102299932" lon="30.5018159654"><ele>59.74</ele><time>2026-08-20T18:08:12Z</time></trkpt><trkpt lat="59.1102119721" lon="30.5018795840"><ele>59.74</ele><time>2026-08-20T18:08:23Z</time></trkpt><trkpt lat="59.1102119721" lon="30.5018826853"><ele>59.74</ele><time>2026-08-20T18:08:24Z</time></trkpt><trkpt lat="59.1102294065" lon="30.5020225793"><ele>59.74</ele><time>2026-08-20T18:08:35Z</time></trkpt><trkpt lat="59.1102258023" lon="30.5020369124"><ele>59.74</ele><time>2026-08-20T18:08:57Z</time></trkpt><trkpt lat="59.1102164984" lon="30.5020613875"><ele>59.74</ele><time>2026-08-20T18:09:34Z</time></trkpt><trkpt lat="59.1102196835" lon="30.5020616390"><ele>59.74</ele><time>2026-08-20T18:09:53Z</time></trkpt><trkpt lat="59.1102165822" lon="30.5020568613"><ele>59.74</ele><time>2026-08-20T18:10:16Z</time></trkpt><trkpt lat="59.1102040093" lon="30.5020561907"><ele>60.22</ele><time>2026-08-20T18:10:51Z</time></trkpt><trkpt lat="59.1102035902" lon="30.5020339787"><ele>60.22</ele><time>2026-08-20T18:11:22Z</time></trkpt><trkpt lat="59.1101911850" lon="30.5020168796"><ele>60.22</ele><time>2026-08-20T18:11:58Z</time></trkpt><trkpt lat="59.1101847310" lon="30.5020102579"><ele>58.78</ele><time>2026-08-20T18:12:29Z</time></trkpt><trkpt lat="59.1101831384" lon="30.5020076595"><ele>58.78</ele><time>2026-08-20T18:12:55Z</time></trkpt><trkpt lat="59.1101895925" lon="30.5020351522"><ele>58.78</ele><time>2026-08-20T18:13:19Z</time></trkpt><trkpt lat="59.1101870779" lon="30.5020392593"><ele>58.78</ele><time>2026-08-20T18:13:43Z</time></trkpt><trkpt lat="59.1102644429" lon="30.5019587930"><ele>58.78</ele><time>2026-08-20T18:14:03Z</time></trkpt><trkpt lat="59.1102705617" lon="30.5018545222"><ele>58.78</ele><time>2026-08-20T18:14:32Z</time></trkpt><trkpt lat="59.1102958750" lon="30.5019416101"><ele>58.78</ele><time>2026-08-20T18:15:09Z</time></trkpt><trkpt lat="59.1102835536" lon="30.5021220725"><ele>58.78</ele><time>2026-08-20T18:15:31Z</time></trkpt><trkpt lat="59.1102727409" lon="30.5020634830"><ele>59.26</ele><time>2026-08-20T18:16:10Z</time></trkpt><trkpt lat="59.1103147343" lon="30.5020510778"><ele>59.26</ele><time>2026-08-20T18:16:45Z</time></trkpt><trkpt lat="59.1103384551" lon="30.5020566098"><ele>59.74</ele><time>2026-08-20T18:17:11Z</time></trkpt><trkpt lat="59.1103630979" lon="30.5020176340"><ele>59.74</ele><time>2026-08-20T18:17:45Z</time></trkpt><trkpt lat="59.1103460826" lon="30.5020253453"><ele>59.74</ele><time>2026-08-20T18:18:15Z</time></trkpt><trkpt lat="59.1103433166" lon="30.5020280275"><ele>60.22</ele><time>2026-08-20T18:18:35Z</time></trkpt><trkpt lat="59.1103436518" lon="30.5020614713"><ele>60.22</ele><time>2026-08-20T18:18:57Z</time></trkpt><trkpt lat="59.1103327554" lon="30.5020127725"><ele>60.70</ele><time>2026-08-20T18:19:24Z</time></trkpt><trkpt lat="59.1103178356" lon="30.5020571966"><ele>60.70</ele><time>2026-08-20T18:19:52Z</time></trkpt><trkpt lat="59.1103352699" lon="30.5020882096"><ele>60.70</ele><time>2026-08-20T18:20:18Z</time></trkpt><trkpt lat="59.1103167459" lon="30.5020723678"><ele>61.18</ele><time>2026-08-20T18:20:46Z</time></trkpt><trkpt lat="59.1103105433" lon="30.5020646565"><ele>61.18</ele><time>2026-08-20T18:21:13Z</time></trkpt><trkpt lat="59.1103626788" lon="30.5020332243"><ele>60.70</ele><time>2026-08-20T18:21:41Z</time></trkpt><trkpt lat="59.1103599127" lon="30.5020291172"><ele>60.70</ele><time>2026-08-20T18:22:17Z</time></trkpt><trkpt lat="59.1103596613" lon="30.5020395946"><ele>61.18</ele><time>2026-08-20T18:22:49Z</time></trkpt><trkpt lat="59.1103538778" lon="30.5020193104"><ele>61.18</ele><time>2026-08-20T18:23:24Z</time></trkpt><trkpt lat="59.1103566438" lon="30.5020329729"><ele>61.66</ele><time>2026-08-20T18:23:52Z</time></trkpt><trkpt lat="59.1103643551" lon="30.5019921530"><ele>61.66</ele><time>2026-08-20T18:24:02Z</time></trkpt><trkpt lat="59.1102843080" lon="30.5019804183"><ele>61.66</ele><time>2026-08-20T18:24:21Z</time></trkpt><trkpt lat="59.1101740859" lon="30.5021266825"><ele>61.66</ele><time>2026-08-20T18:24:41Z</time></trkpt><trkpt lat="59.1101952083" lon="30.5021692626"><ele>61.66</ele><time>2026-08-20T18:25:11Z</time></trkpt><trkpt lat="59.1101895925" lon="30.5021491461"><ele>63.10</ele><time>2026-08-20T18:25:40Z</time></trkpt><trkpt lat="59.1101841442" lon="30.5021545943"><ele>63.10</ele><time>2026-08-20T18:26:11Z</time></trkpt><trkpt lat="59.1101792827" lon="30.5021628086"><ele>63.10</ele><time>2026-08-20T18:26:43Z</time></trkpt><trkpt lat="59.1101512033" lon="30.5021329690"><ele>63.10</ele><time>2026-08-20T18:26:59Z</time></trkpt><trkpt lat="59.1101115569" lon="30.5020795763"><ele>63.10</ele><time>2026-08-20T18:27:12Z</time></trkpt><trkpt lat="59.1100595053" lon="30.5020382535"><ele>63.10</ele><time>2026-08-20T18:27:23Z</time></trkpt><trkpt lat="59.1100123990" lon="30.5020411033"><ele>63.10</ele><time>2026-08-20T18:27:35Z</time></trkpt><trkpt lat="59.1099419072" lon="30.5020374991"><ele>63.10</ele><time>2026-08-20T18:27:48Z</time></trkpt><trkpt lat="59.1098242253" lon="30.5020905565"><ele>63.10</ele><time>2026-08-20T18:27:58Z</time></trkpt><trkpt lat="59.1097098961" lon="30.5021105893"><ele>63.10</ele><time>2026-08-20T18:28:08Z</time></trkpt><trkpt lat="59.1095985007" lon="30.5021067336"><ele>63.10</ele><time>2026-08-20T18:28:23Z</time></trkpt><trkpt lat="59.1094932240" lon="30.5021552648"><ele>63.10</ele><time>2026-08-20T18:28:33Z</time></trkpt><trkpt lat="59.1093902104" lon="30.5021922290"><ele>63.10</ele><time>2026-08-20T18:28:47Z</time></trkpt><trkpt lat="59.1093644779" lon="30.5022014491"><ele>63.10</ele><time>2026-08-20T18:29:14Z</time></trkpt><trkpt lat="59.1093711834" lon="30.5021018721"><ele>63.10</ele><time>2026-08-20T18:29:25Z</time></trkpt><trkpt lat="59.1093759611" lon="30.5020322185"><ele>62.62</ele><time>2026-08-20T18:29:38Z</time></trkpt><trkpt lat="59.1093756258" lon="30.5019455496"><ele>62.62</ele><time>2026-08-20T18:29:48Z</time></trkpt><trkpt lat="59.1093457863" lon="30.5018314719"><ele>62.62</ele><time>2026-08-20T18:29:59Z</time></trkpt><trkpt lat="59.1093431041" lon="30.5017484073"><ele>62.62</ele><time>2026-08-20T18:30:13Z</time></trkpt><trkpt lat="59.1093557607" lon="30.5016340781"><ele>62.62</ele><time>2026-08-20T18:30:26Z</time></trkpt><trkpt lat="59.1093721893" lon="30.5015021469"><ele>62.62</ele><time>2026-08-20T18:30:39Z</time></trkpt><trkpt lat="59.1093438584" lon="30.5013591517"><ele>62.62</ele><time>2026-08-20T18:30:48Z</time></trkpt><trkpt lat="59.1093320400" lon="30.5012539588"><ele>62.62</ele><time>2026-08-20T18:30:58Z</time></trkpt><trkpt lat="59.1093413439" lon="30.5011957046"><ele>62.62</ele><time>2026-08-20T18:31:07Z</time></trkpt><trkpt lat="59.1093323752" lon="30.5011309963"><ele>62.62</ele><time>2026-08-20T18:31:18Z</time></trkpt><trkpt lat="59.1093027033" lon="30.5010139849"><ele>62.62</ele><time>2026-08-20T18:31:31Z</time></trkpt><trkpt lat="59.1092992667" lon="30.5009205267"><ele>62.62</ele><time>2026-08-20T18:31:42Z</time></trkpt><trkpt lat="59.1093130969" lon="30.5008443352"><ele>62.62</ele><time>2026-08-20T18:31:55Z</time></trkpt><trkpt lat="59.1093296092" lon="30.5007574148"><ele>62.62</ele><time>2026-08-20T18:32:06Z</time></trkpt><trkpt lat="59.1093190480" lon="30.5006959755"><ele>62.62</ele><time>2026-08-20T18:32:17Z</time></trkpt><trkpt lat="59.1093207244" lon="30.5006017629"><ele>62.14</ele><time>2026-08-20T18:32:30Z</time></trkpt><trkpt lat="59.1093198862" lon="30.5005148426"><ele>62.14</ele><time>2026-08-20T18:32:43Z</time></trkpt><trkpt lat="59.1093127616" lon="30.5004545767"><ele>62.14</ele><time>2026-08-20T18:32:59Z</time></trkpt><trkpt lat="59.1093125101" lon="30.5004511401"><ele>62.14</ele><time>2026-08-20T18:33:01Z</time></trkpt><trkpt lat="59.1092891246" lon="30.5003244057"><ele>62.14</ele><time>2026-08-20T18:33:13Z</time></trkpt><trkpt lat="59.1092433594" lon="30.5002517346"><ele>62.14</ele><time>2026-08-20T18:33:25Z</time></trkpt><trkpt lat="59.1092416830" lon="30.5002006050"><ele>62.14</ele><time>2026-08-20T18:33:37Z</time></trkpt><trkpt lat="59.1092322115" lon="30.5001252517"><ele>62.14</ele><time>2026-08-20T18:33:50Z</time></trkpt><trkpt lat="59.1092457902" lon="30.5000894610"><ele>62.14</ele><time>2026-08-20T18:34:02Z</time></trkpt><trkpt lat="59.1092463769" lon="30.5000255909"><ele>62.14</ele><time>2026-08-20T18:34:14Z</time></trkpt><trkpt lat="59.1092701815" lon="30.4999633133"><ele>62.14</ele><time>2026-08-20T18:34:28Z</time></trkpt><trkpt lat="59.1093023680" lon="30.4998457991"><ele>62.14</ele><time>2026-08-20T18:34:39Z</time></trkpt><trkpt lat="59.1093313694" lon="30.4997453000"><ele>61.66</ele><time>2026-08-20T18:34:53Z</time></trkpt><trkpt lat="59.1093456186" lon="30.4996862076"><ele>61.66</ele><time>2026-08-20T18:35:06Z</time></trkpt><trkpt lat="59.1093609575" lon="30.4995724652"><ele>61.66</ele><time>2026-08-20T18:35:17Z</time></trkpt><trkpt lat="59.1093240771" lon="30.4994946811"><ele>61.66</ele><time>2026-08-20T18:35:28Z</time></trkpt><trkpt lat="59.1092913039" lon="30.4994574655"><ele>61.66</ele><time>2026-08-20T18:35:40Z</time></trkpt><trkpt lat="59.1092840955" lon="30.4993989598"><ele>61.66</ele><time>2026-08-20T18:35:52Z</time></trkpt><trkpt lat="59.1092668287" lon="30.4993375205"><ele>61.66</ele><time>2026-08-20T18:36:03Z</time></trkpt><trkpt lat="59.1092643980" lon="30.4992385302"><ele>61.66</ele><time>2026-08-20T18:36:14Z</time></trkpt><trkpt lat="59.1092341393" lon="30.4991404619"><ele>61.18</ele><time>2026-08-20T18:36:26Z</time></trkpt><trkpt lat="59.1092258412" lon="30.4990257975"><ele>61.18</ele><time>2026-08-20T18:36:40Z</time></trkpt><trkpt lat="59.1092120111" lon="30.4989645258"><ele>61.18</ele><time>2026-08-20T18:36:51Z</time></trkpt><trkpt lat="59.1092026234" lon="30.4989131447"><ele>61.18</ele><time>2026-08-20T18:37:03Z</time></trkpt><trkpt lat="59.1091703530" lon="30.4988082871"><ele>61.18</ele><time>2026-08-20T18:37:16Z</time></trkpt><trkpt lat="59.1091618873" lon="30.4987653717"><ele>61.18</ele><time>2026-08-20T18:37:26Z</time></trkpt><trkpt lat="59.1091597080" lon="30.4987294972"><ele>60.70</ele><time>2026-08-20T18:37:41Z</time></trkpt><trkpt lat="59.1091682576" lon="30.4986440018"><ele>60.70</ele><time>2026-08-20T18:37:54Z</time></trkpt><trkpt lat="59.1091602948" lon="30.4985884298"><ele>60.70</ele><time>2026-08-20T18:38:07Z</time></trkpt><trkpt lat="59.1091679223" lon="30.4985540640"><ele>60.70</ele><time>2026-08-20T18:38:20Z</time></trkpt><trkpt lat="59.1092079040" lon="30.4984806385"><ele>60.70</ele><time>2026-08-20T18:38:33Z</time></trkpt><trkpt lat="59.1092067305" lon="30.4983834922"><ele>60.70</ele><time>2026-08-20T18:38:43Z</time></trkpt><trkpt lat="59.1091789864" lon="30.4982774612"><ele>60.70</ele><time>2026-08-20T18:38:56Z</time></trkpt><trkpt lat="59.1091752984" lon="30.4981912952"><ele>60.70</ele><time>2026-08-20T18:39:08Z</time></trkpt><trkpt lat="59.1092086583" lon="30.4980531614"><ele>60.70</ele><time>2026-08-20T18:39:22Z</time></trkpt><trkpt lat="59.1092367377" lon="30.4978465475"><ele>60.22</ele><time>2026-08-20T18:39:34Z</time></trkpt><trkpt lat="59.1092304513" lon="30.4977486469"><ele>60.22</ele><time>2026-08-20T18:39:44Z</time></trkpt><trkpt lat="59.1092248354" lon="30.4975610599"><ele>60.22</ele><time>2026-08-20T18:39:57Z</time></trkpt><trkpt lat="59.1092101671" lon="30.4975176416"><ele>60.22</ele><time>2026-08-20T18:40:11Z</time></trkpt><trkpt lat="59.1092156153" lon="30.4974755645"><ele>60.22</ele><time>2026-08-20T18:40:30Z</time></trkpt><trkpt lat="59.1091720294" lon="30.4973816872"><ele>60.22</ele><time>2026-08-20T18:40:39Z</time></trkpt><trkpt lat="59.1090742126" lon="30.4973010533"><ele>60.22</ele><time>2026-08-20T18:40:54Z</time></trkpt><trkpt lat="59.1090291180" lon="30.4972060025"><ele>60.22</ele><time>2026-08-20T18:41:06Z</time></trkpt><trkpt lat="59.1090404335" lon="30.4970555473"><ele>60.22</ele><time>2026-08-20T18:41:19Z</time></trkpt><trkpt lat="59.1090693511" lon="30.4969801940"><ele>60.22</ele><time>2026-08-20T18:41:30Z</time></trkpt><trkpt lat="59.1090980172" lon="30.4968642723"><ele>60.22</ele><time>2026-08-20T18:41:41Z</time></trkpt><trkpt lat="59.1091132723" lon="30.4967867397"><ele>61.18</ele><time>2026-08-20T18:41:53Z</time></trkpt><trkpt lat="59.1091797408" lon="30.4966604244"><ele>61.18</ele><time>2026-08-20T18:42:09Z</time></trkpt><trkpt lat="59.1091680899" lon="30.4965676367"><ele>60.70</ele><time>2026-08-20T18:42:25Z</time></trkpt><trkpt lat="59.1091623064" lon="30.4964516312"><ele>60.70</ele><time>2026-08-20T18:42:36Z</time></trkpt><trkpt lat="59.1091488115" lon="30.4963540658"><ele>60.70</ele><time>2026-08-20T18:42:47Z</time></trkpt><trkpt lat="59.1091633122" lon="30.4961850028"><ele>60.70</ele><time>2026-08-20T18:43:00Z</time></trkpt><trkpt lat="59.1091422737" lon="30.4960620403"><ele>60.70</ele><time>2026-08-20T18:43:14Z</time></trkpt><trkpt lat="59.1091466323" lon="30.4959160276"><ele>60.70</ele><time>2026-08-20T18:43:27Z</time></trkpt><trkpt lat="59.1091456264" lon="30.4958182946"><ele>60.70</ele><time>2026-08-20T18:43:39Z</time></trkpt><trkpt lat="59.1091419384" lon="30.4956659116"><ele>60.70</ele><time>2026-08-20T18:43:52Z</time></trkpt><trkpt lat="59.1090844385" lon="30.4955973476"><ele>60.70</ele><time>2026-08-20T18:44:04Z</time></trkpt><trkpt lat="59.1090573650" lon="30.4954508319"><ele>60.70</ele><time>2026-08-20T18:44:17Z</time></trkpt><trkpt lat="59.1090196464" lon="30.4952920787"><ele>60.70</ele><time>2026-08-20T18:44:30Z</time></trkpt><trkpt lat="59.1090114322" lon="30.4951789230"><ele>60.70</ele><time>2026-08-20T18:44:40Z</time></trkpt><trkpt lat="59.1090079118" lon="30.4950927570"><ele>60.70</ele><time>2026-08-20T18:44:54Z</time></trkpt><trkpt lat="59.1090184730" lon="30.4949789308"><ele>60.70</ele><time>2026-08-20T18:45:06Z</time></trkpt><trkpt lat="59.1090732906" lon="30.4948904179"><ele>60.70</ele><time>2026-08-20T18:45:19Z</time></trkpt><trkpt lat="59.1090799123" lon="30.4948230274"><ele>60.70</ele><time>2026-08-20T18:45:36Z</time></trkpt><trkpt lat="59.1091066506" lon="30.4946797807"><ele>60.70</ele><time>2026-08-20T18:45:50Z</time></trkpt><trkpt lat="59.1091360711" lon="30.4945457540"><ele>60.70</ele><time>2026-08-20T18:46:10Z</time></trkpt><trkpt lat="59.1091155354" lon="30.4945158307"><ele>60.70</ele><time>2026-08-20T18:46:28Z</time></trkpt><trkpt lat="59.1090969276" lon="30.4945108853"><ele>60.70</ele><time>2026-08-20T18:46:39Z</time></trkpt><trkpt lat="59.1090474743" lon="30.4945724085"><ele>60.70</ele><time>2026-08-20T18:46:49Z</time></trkpt><trkpt lat="59.1090053134" lon="30.4945208598"><ele>60.70</ele><time>2026-08-20T18:47:00Z</time></trkpt><trkpt lat="59.1089313850" lon="30.4945101310"><ele>60.70</ele><time>2026-08-20T18:47:11Z</time></trkpt><trkpt lat="59.1088958457" lon="30.4945357796"><ele>61.18</ele><time>2026-08-20T18:47:22Z</time></trkpt><trkpt lat="59.1088434588" lon="30.4945929442"><ele>60.22</ele><time>2026-08-20T18:47:33Z</time></trkpt><trkpt lat="59.1087957658" lon="30.4945674632"><ele>60.22</ele><time>2026-08-20T18:47:44Z</time></trkpt><trkpt lat="59.1087610647" lon="30.4945844784"><ele>60.22</ele><time>2026-08-20T18:47:57Z</time></trkpt><trkpt lat="59.1087107733" lon="30.4945910163"><ele>60.22</ele><time>2026-08-20T18:48:08Z</time></trkpt><trkpt lat="59.1086609010" lon="30.4945425689"><ele>60.22</ele><time>2026-08-20T18:48:19Z</time></trkpt><trkpt lat="59.1085738130" lon="30.4945201892"><ele>60.22</ele><time>2026-08-20T18:48:30Z</time></trkpt><trkpt lat="59.1085522715" lon="30.4945183452"><ele>60.22</ele><time>2026-08-20T18:48:46Z</time></trkpt><trkpt lat="59.1085322388" lon="30.4945226200"><ele>60.22</ele><time>2026-08-20T18:49:01Z</time></trkpt><trkpt lat="59.1084599867" lon="30.4944730829"><ele>60.22</ele><time>2026-08-20T18:49:14Z</time></trkpt><trkpt lat="59.1083694622" lon="30.4944782797"><ele>60.22</ele><time>2026-08-20T18:49:26Z</time></trkpt><trkpt lat="59.1083663609" lon="30.4944795370"><ele>60.22</ele><time>2026-08-20T18:49:27Z</time></trkpt><trkpt lat="59.1082917619" lon="30.4945016652"><ele>60.22</ele><time>2026-08-20T18:49:40Z</time></trkpt><trkpt lat="59.1082821228" lon="30.4945491068"><ele>60.22</ele><time>2026-08-20T18:49:50Z</time></trkpt><trkpt lat="59.1082328372" lon="30.4945839755"><ele>60.22</ele><time>2026-08-20T18:50:01Z</time></trkpt><trkpt lat="59.1081921011" lon="30.4946178384"><ele>60.22</ele><time>2026-08-20T18:50:12Z</time></trkpt><trkpt lat="59.1081469227" lon="30.4946079478"><ele>60.22</ele><time>2026-08-20T18:50:28Z</time></trkpt><trkpt lat="59.1081345174" lon="30.4946067743"><ele>60.22</ele><time>2026-08-20T18:50:53Z</time></trkpt><trkpt lat="59.1081361100" lon="30.4946036730"><ele>60.22</ele><time>2026-08-20T18:51:14Z</time></trkpt><trkpt lat="59.1081268061" lon="30.4946059361"><ele>59.74</ele><time>2026-08-20T18:51:44Z</time></trkpt><trkpt lat="59.1081107967" lon="30.4946180899"><ele>59.74</ele><time>2026-08-20T18:52:12Z</time></trkpt><trkpt lat="59.1081014927" lon="30.4946509469"><ele>59.74</ele><time>2026-08-20T18:52:39Z</time></trkpt><trkpt lat="59.1081042588" lon="30.4946919344"><ele>59.74</ele><time>2026-08-20T18:52:46Z</time></trkpt><trkpt lat="59.1081447434" lon="30.4947796930"><ele>59.74</ele><time>2026-08-20T18:52:59Z</time></trkpt><trkpt lat="59.1081436537" lon="30.4947939422"><ele>59.74</ele><time>2026-08-20T18:53:00Z</time></trkpt><trkpt lat="59.1081477609" lon="30.4949350096"><ele>59.74</ele><time>2026-08-20T18:53:11Z</time></trkpt><trkpt lat="59.1081223637" lon="30.4951060005"><ele>59.74</ele><time>2026-08-20T18:53:23Z</time></trkpt><trkpt lat="59.1081054322" lon="30.4951857962"><ele>59.74</ele><time>2026-08-20T18:53:36Z</time></trkpt><trkpt lat="59.1081164964" lon="30.4952362552"><ele>59.74</ele><time>2026-08-20T18:53:48Z</time></trkpt><trkpt lat="59.1081705596" lon="30.4953173921"><ele>59.74</ele><time>2026-08-20T18:54:00Z</time></trkpt><trkpt lat="59.1081719846" lon="30.4954167176"><ele>59.74</ele><time>2026-08-20T18:54:07Z</time></trkpt><trkpt lat="59.1081450786" lon="30.4955315497"><ele>59.74</ele><time>2026-08-20T18:54:19Z</time></trkpt><trkpt lat="59.1081669554" lon="30.4956129380"><ele>59.74</ele><time>2026-08-20T18:54:32Z</time></trkpt><trkpt lat="59.1081760079" lon="30.4957363196"><ele>59.26</ele><time>2026-08-20T18:54:44Z</time></trkpt><trkpt lat="59.1081411391" lon="30.4958622996"><ele>59.26</ele><time>2026-08-20T18:54:55Z</time></trkpt><trkpt lat="59.1081206873" lon="30.4959690850"><ele>59.26</ele><time>2026-08-20T18:55:04Z</time></trkpt><trkpt lat="59.1081460845" lon="30.4960563406"><ele>59.26</ele><time>2026-08-20T18:55:14Z</time></trkpt><trkpt lat="59.1082067695" lon="30.4961798899"><ele>59.26</ele><time>2026-08-20T18:55:26Z</time></trkpt><trkpt lat="59.1082205158" lon="30.4962695763"><ele>59.26</ele><time>2026-08-20T18:55:38Z</time></trkpt><trkpt lat="59.1081789415" lon="30.4964119010"><ele>58.78</ele><time>2026-08-20T18:55:51Z</time></trkpt><trkpt lat="59.1081656143" lon="30.4965413176"><ele>58.78</ele><time>2026-08-20T18:56:01Z</time></trkpt><trkpt lat="59.1081787739" lon="30.4966698959"><ele>58.78</ele><time>2026-08-20T18:56:13Z</time></trkpt><trkpt lat="59.1081978846" lon="30.4967391305"><ele>58.78</ele><time>2026-08-20T18:56:26Z</time></trkpt><trkpt lat="59.1081879940" lon="30.4969084449"><ele>58.78</ele><time>2026-08-20T18:56:38Z</time></trkpt><trkpt lat="59.1082179174" lon="30.4969955329"><ele>58.78</ele><time>2026-08-20T18:56:51Z</time></trkpt><trkpt lat="59.1082042549" lon="30.4970970377"><ele>58.78</ele><time>2026-08-20T18:57:03Z</time></trkpt><trkpt lat="59.1082093678" lon="30.4972160608"><ele>58.78</ele><time>2026-08-20T18:57:16Z</time></trkpt><trkpt lat="59.1082260478" lon="30.4972761590"><ele>58.30</ele><time>2026-08-20T18:57:27Z</time></trkpt><trkpt lat="59.1082337592" lon="30.4973511770"><ele>58.30</ele><time>2026-08-20T18:57:39Z</time></trkpt><trkpt lat="59.1082604975" lon="30.4974406958"><ele>58.30</ele><time>2026-08-20T18:57:51Z</time></trkpt><trkpt lat="59.1082907561" lon="30.4975191504"><ele>58.30</ele><time>2026-08-20T18:58:04Z</time></trkpt><trkpt lat="59.1082912590" lon="30.4975253530"><ele>58.30</ele><time>2026-08-20T18:58:18Z</time></trkpt><trkpt lat="59.1083156504" lon="30.4975473136"><ele>57.82</ele><time>2026-08-20T18:58:30Z</time></trkpt><trkpt lat="59.1083165724" lon="30.4975400213"><ele>57.82</ele><time>2026-08-20T18:58:43Z</time></trkpt><trkpt lat="59.1083008144" lon="30.4975809250"><ele>57.82</ele><time>2026-08-20T18:58:55Z</time></trkpt><trkpt lat="59.1082475893" lon="30.4976009578"><ele>57.82</ele><time>2026-08-20T18:59:07Z</time></trkpt><trkpt lat="59.1082205158" lon="30.4976266064"><ele>57.82</ele><time>2026-08-20T18:59:19Z</time></trkpt><trkpt lat="59.1081921849" lon="30.4975753929"><ele>57.82</ele><time>2026-08-20T18:59:32Z</time></trkpt><trkpt lat="59.1081547178" lon="30.4975294601"><ele>57.82</ele><time>2026-08-20T18:59:44Z</time></trkpt><trkpt lat="59.1081243753" lon="30.4974989500"><ele>57.82</ele><time>2026-08-20T18:59:54Z</time></trkpt><trkpt lat="59.1081309132" lon="30.4974685237"><ele>57.82</ele><time>2026-08-20T19:00:07Z</time></trkpt><trkpt lat="59.1081158258" lon="30.4974831920"><ele>57.82</ele><time>2026-08-20T19:00:34Z</time></trkpt><trkpt lat="59.1081165802" lon="30.4974946752"><ele>57.82</ele><time>2026-08-20T19:01:00Z</time></trkpt><trkpt lat="59.1081262194" lon="30.4975217488"><ele>57.82</ele><time>2026-08-20T19:01:14Z</time></trkpt><trkpt lat="59.1081244592" lon="30.4975313880"><ele>57.82</ele><time>2026-08-20T19:01:18Z</time></trkpt><trkpt lat="59.1081010737" lon="30.4975560308"><ele>57.82</ele><time>2026-08-20T19:01:31Z</time></trkpt><trkpt lat="59.1081173345" lon="30.4975615628"><ele>57.82</ele><time>2026-08-20T19:01:41Z</time></trkpt><trkpt lat="59.1081889998" lon="30.4975554440"><ele>57.82</ele><time>2026-08-20T19:01:53Z</time></trkpt><trkpt lat="59.1082248744" lon="30.4975861218"><ele>57.82</ele><time>2026-08-20T19:02:05Z</time></trkpt><trkpt lat="59.1082727350" lon="30.4976004548"><ele>57.82</ele><time>2026-08-20T19:02:18Z</time></trkpt><trkpt lat="59.1083045024" lon="30.4976651631"><ele>57.82</ele><time>2026-08-20T19:02:29Z</time></trkpt><trkpt lat="59.1083335876" lon="30.4977695178"><ele>57.82</ele><time>2026-08-20T19:02:40Z</time></trkpt><trkpt lat="59.1083062626" lon="30.4979239125"><ele>57.82</ele><time>2026-08-20T19:02:52Z</time></trkpt><trkpt lat="59.1083045863" lon="30.4980205558"><ele>57.82</ele><time>2026-08-20T19:03:01Z</time></trkpt><trkpt lat="59.1082914267" lon="30.4982017726"><ele>57.82</ele><time>2026-08-20T19:03:12Z</time></trkpt><trkpt lat="59.1082960367" lon="30.4982419219"><ele>57.82</ele><time>2026-08-20T19:03:15Z</time></trkpt><trkpt lat="59.1082763392" lon="30.4983964842"><ele>57.82</ele><time>2026-08-20T19:03:27Z</time></trkpt><trkpt lat="59.1082854755" lon="30.4985560756"><ele>57.82</ele><time>2026-08-20T19:03:40Z</time></trkpt><trkpt lat="59.1083119623" lon="30.4986669682"><ele>57.82</ele><time>2026-08-20T19:03:51Z</time></trkpt><trkpt lat="59.1083290614" lon="30.4987852369"><ele>57.82</ele><time>2026-08-20T19:04:04Z</time></trkpt><trkpt lat="59.1083100345" lon="30.4988917708"><ele>57.82</ele><time>2026-08-20T19:04:16Z</time></trkpt><trkpt lat="59.1083126329" lon="30.4989687167"><ele>57.82</ele><time>2026-08-20T19:04:31Z</time></trkpt><trkpt lat="59.1083048377" lon="30.4989900067"><ele>57.82</ele><time>2026-08-20T19:04:42Z</time></trkpt><trkpt lat="59.1083034966" lon="30.4989977181"><ele>57.82</ele><time>2026-08-20T19:04:57Z</time></trkpt><trkpt lat="59.1083026584" lon="30.4990260489"><ele>57.82</ele><time>2026-08-20T19:05:35Z</time></trkpt><trkpt lat="59.1082962882" lon="30.4990272224"><ele>57.82</ele><time>2026-08-20T19:06:07Z</time></trkpt><trkpt lat="59.1083054245" lon="30.4990462493"><ele>57.82</ele><time>2026-08-20T19:06:32Z</time></trkpt><trkpt lat="59.1083314084" lon="30.4990386218"><ele>57.82</ele><time>2026-08-20T19:06:35Z</time></trkpt><trkpt lat="59.1083403770" lon="30.4991017375"><ele>57.82</ele><time>2026-08-20T19:06:45Z</time></trkpt><trkpt lat="59.1083304025" lon="30.4992120434"><ele>57.82</ele><time>2026-08-20T19:06:59Z</time></trkpt><trkpt lat="59.1083288938" lon="30.4992298968"><ele>57.82</ele><time>2026-08-20T19:07:02Z</time></trkpt><trkpt lat="59.1083167400" lon="30.4993402865"><ele>57.82</ele><time>2026-08-20T19:07:14Z</time></trkpt><trkpt lat="59.1083321627" lon="30.4994066712"><ele>57.34</ele><time>2026-08-20T19:07:28Z</time></trkpt><trkpt lat="59.1083603259" lon="30.4995491635"><ele>57.34</ele><time>2026-08-20T19:07:40Z</time></trkpt><trkpt lat="59.1083302349" lon="30.4996872973"><ele>57.34</ele><time>2026-08-20T19:07:52Z</time></trkpt><trkpt lat="59.1083583981" lon="30.4997735471"><ele>57.34</ele><time>2026-08-20T19:08:02Z</time></trkpt><trkpt lat="59.1083467472" lon="30.4999213200"><ele>57.34</ele><time>2026-08-20T19:08:15Z</time></trkpt><trkpt lat="59.1083285585" lon="30.5000524130"><ele>57.34</ele><time>2026-08-20T19:08:28Z</time></trkpt><trkpt lat="59.1083761677" lon="30.5001400039"><ele>57.34</ele><time>2026-08-20T19:08:44Z</time></trkpt><trkpt lat="59.1083635949" lon="30.5002683308"><ele>57.34</ele><time>2026-08-20T19:08:56Z</time></trkpt><trkpt lat="59.1083861422" lon="30.5003932212"><ele>57.34</ele><time>2026-08-20T19:09:08Z</time></trkpt><trkpt lat="59.1083975416" lon="30.5004312750"><ele>57.34</ele><time>2026-08-20T19:09:21Z</time></trkpt><trkpt lat="59.1084097791" lon="30.5005725939"><ele>57.34</ele><time>2026-08-20T19:09:34Z</time></trkpt><trkpt lat="59.1084016487" lon="30.5006536469"><ele>57.34</ele><time>2026-08-20T19:09:45Z</time></trkpt><trkpt lat="59.1084086057" lon="30.5007754359"><ele>56.86</ele><time>2026-08-20T19:09:58Z</time></trkpt><trkpt lat="59.1084132157" lon="30.5008284934"><ele>56.86</ele><time>2026-08-20T19:10:09Z</time></trkpt><trkpt lat="59.1084000561" lon="30.5009322613"><ele>56.86</ele><time>2026-08-20T19:10:34Z</time></trkpt><trkpt lat="59.1083967872" lon="30.5010577384"><ele>56.86</ele><time>2026-08-20T19:10:44Z</time></trkpt><trkpt lat="59.1083918419" lon="30.5011951178"><ele>56.86</ele><time>2026-08-20T19:10:56Z</time></trkpt><trkpt lat="59.1083962843" lon="30.5013542064"><ele>56.86</ele><time>2026-08-20T19:11:07Z</time></trkpt><trkpt lat="59.1084269620" lon="30.5014459044"><ele>56.86</ele><time>2026-08-20T19:11:19Z</time></trkpt><trkpt lat="59.1084131319" lon="30.5015295558"><ele>57.82</ele><time>2026-08-20T19:11:31Z</time></trkpt><trkpt lat="59.1084091924" lon="30.5015500914"><ele>57.82</ele><time>2026-08-20T19:11:32Z</time></trkpt><trkpt lat="59.1084446479" lon="30.5016818549"><ele>57.82</ele><time>2026-08-20T19:11:43Z</time></trkpt><trkpt lat="59.1084055044" lon="30.5017507542"><ele>57.82</ele><time>2026-08-20T19:11:56Z</time></trkpt><trkpt lat="59.1084131319" lon="30.5017882213"><ele>57.82</ele><time>2026-08-20T19:12:06Z</time></trkpt><trkpt lat="59.1084272135" lon="30.5018422008"><ele>57.82</ele><time>2026-08-20T19:12:17Z</time></trkpt><trkpt lat="59.1084292252" lon="30.5018999521"><ele>57.82</ele><time>2026-08-20T19:12:36Z</time></trkpt><trkpt lat="59.1084268782" lon="30.5019349046"><ele>57.82</ele><time>2026-08-20T19:12:52Z</time></trkpt><trkpt lat="59.1084417980" lon="30.5019698571"><ele>57.34</ele><time>2026-08-20T19:13:20Z</time></trkpt><trkpt lat="59.1084552091" lon="30.5020102579"><ele>57.34</ele><time>2026-08-20T19:13:43Z</time></trkpt><trkpt lat="59.1084391158" lon="30.5020331405"><ele>57.34</ele><time>2026-08-20T19:14:03Z</time></trkpt><trkpt lat="59.1084412951" lon="30.5020331405"><ele>57.34</ele><time>2026-08-20T19:14:20Z</time></trkpt><trkpt lat="59.1084411275" lon="30.5020586215"><ele>57.34</ele><time>2026-08-20T19:14:34Z</time></trkpt><trkpt lat="59.1084426362" lon="30.5020891316"><ele>57.34</ele><time>2026-08-20T19:14:45Z</time></trkpt><trkpt lat="59.1084262077" lon="30.5021165404"><ele>57.34</ele><time>2026-08-20T19:15:02Z</time></trkpt><trkpt lat="59.1083968710" lon="30.5021737888"><ele>57.34</ele><time>2026-08-20T19:15:13Z</time></trkpt><trkpt lat="59.1083758324" lon="30.5022088252"><ele>57.34</ele><time>2026-08-20T19:15:27Z</time></trkpt><trkpt lat="59.1083770059" lon="30.5022334680"><ele>57.34</ele><time>2026-08-20T19:15:40Z</time></trkpt><trkpt lat="59.1083764192" lon="30.5022951588"><ele>57.34</ele><time>2026-08-20T19:15:50Z</time></trkpt><trkpt lat="59.1083791852" lon="30.5023960769"><ele>57.34</ele><time>2026-08-20T19:16:04Z</time></trkpt><trkpt lat="59.1084420495" lon="30.5024090689"><ele>57.34</ele><time>2026-08-20T19:16:16Z</time></trkpt><trkpt lat="59.1084745713" lon="30.5024090689"><ele>57.34</ele><time>2026-08-20T19:16:39Z</time></trkpt><trkpt lat="59.1084813606" lon="30.5024244916"><ele>57.34</ele><time>2026-08-20T19:16:58Z</time></trkpt><trkpt lat="59.1084427200" lon="30.5024284311"><ele>57.34</ele><time>2026-08-20T19:17:09Z</time></trkpt><trkpt lat="59.1084306501" lon="30.5024359748"><ele>57.34</ele><time>2026-08-20T19:17:13Z</time></trkpt><trkpt lat="59.1083700489" lon="30.5024285149"><ele>57.34</ele><time>2026-08-20T19:17:24Z</time></trkpt><trkpt lat="59.1083236132" lon="30.5024700891"><ele>57.34</ele><time>2026-08-20T19:17:35Z</time></trkpt><trkpt lat="59.1082662810" lon="30.5024897866"><ele>57.34</ele><time>2026-08-20T19:17:46Z</time></trkpt><trkpt lat="59.1082015727" lon="30.5024948996"><ele>57.34</ele><time>2026-08-20T19:18:00Z</time></trkpt><trkpt lat="59.1081352718" lon="30.5024995934"><ele>57.34</ele><time>2026-08-20T19:18:13Z</time></trkpt><trkpt lat="59.1080455016" lon="30.5025312770"><ele>57.34</ele><time>2026-08-20T19:18:23Z</time></trkpt><trkpt lat="59.1079932824" lon="30.5025326181"><ele>57.82</ele><time>2026-08-20T19:18:34Z</time></trkpt><trkpt lat="59.1078958847" lon="30.5025798082"><ele>57.82</ele><time>2026-08-20T19:18:45Z</time></trkpt><trkpt lat="59.1078457609" lon="30.5026026908"><ele>57.82</ele><time>2026-08-20T19:18:51Z</time></trkpt><trkpt lat="59.1077820584" lon="30.5025760364"><ele>57.82</ele><time>2026-08-20T19:19:02Z</time></trkpt><trkpt lat="59.1077020951" lon="30.5026035290"><ele>57.82</ele><time>2026-08-20T19:19:11Z</time></trkpt><trkpt lat="59.1076557431" lon="30.5025939737"><ele>57.82</ele><time>2026-08-20T19:19:25Z</time></trkpt><trkpt lat="59.1076056194" lon="30.5026060436"><ele>57.82</ele><time>2026-08-20T19:19:51Z</time></trkpt><trkpt lat="59.1075181961" lon="30.5026534852"><ele>57.82</ele><time>2026-08-20T19:20:02Z</time></trkpt><trkpt lat="59.1074681561" lon="30.5026993342"><ele>58.30</ele><time>2026-08-20T19:20:13Z</time></trkpt><trkpt lat="59.1074591875" lon="30.5027264915"><ele>58.30</ele><time>2026-08-20T19:20:19Z</time></trkpt><trkpt lat="59.1074637976" lon="30.5027852487"><ele>58.30</ele><time>2026-08-20T19:20:25Z</time></trkpt><trkpt lat="59.1074508894" lon="30.5029019248"><ele>58.30</ele><time>2026-08-20T19:20:38Z</time></trkpt><trkpt lat="59.1074026935" lon="30.5029729195"><ele>58.30</ele><time>2026-08-20T19:20:47Z</time></trkpt><trkpt lat="59.1073479597" lon="30.5029998254"><ele>58.30</ele><time>2026-08-20T19:20:57Z</time></trkpt><trkpt lat="59.1073310282" lon="30.5029919464"><ele>58.30</ele><time>2026-08-20T19:21:01Z</time></trkpt><trkpt lat="59.1072659846" lon="30.5030038487"><ele>58.30</ele><time>2026-08-20T19:21:13Z</time></trkpt><trkpt lat="59.1072420962" lon="30.5029683933"><ele>58.30</ele><time>2026-08-20T19:21:24Z</time></trkpt><trkpt lat="59.1072345525" lon="30.5029353686"><ele>58.30</ele><time>2026-08-20T19:21:30Z</time></trkpt><trkpt lat="59.1072000191" lon="30.5028751027"><ele>58.30</ele><time>2026-08-20T19:21:40Z</time></trkpt><trkpt lat="59.1071918048" lon="30.5028524715"><ele>58.30</ele><time>2026-08-20T19:21:42Z</time></trkpt><trkpt lat="59.1071420163" lon="30.5027466081"><ele>58.30</ele><time>2026-08-20T19:21:54Z</time></trkpt><trkpt lat="59.1070990171" lon="30.5027156789"><ele>58.30</ele><time>2026-08-20T19:22:03Z</time></trkpt><trkpt lat="59.1070580296" lon="30.5027067102"><ele>58.30</ele><time>2026-08-20T19:22:13Z</time></trkpt><trkpt lat="59.1070089955" lon="30.5027278326"><ele>58.78</ele><time>2026-08-20T19:22:24Z</time></trkpt><trkpt lat="59.1069622245" lon="30.5027488712"><ele>58.78</ele><time>2026-08-20T19:22:32Z</time></trkpt><trkpt lat="59.1068969294" lon="30.5027797166"><ele>58.78</ele><time>2026-08-20T19:22:44Z</time></trkpt><trkpt lat="59.1068497393" lon="30.5027891044"><ele>58.78</ele><time>2026-08-20T19:22:57Z</time></trkpt><trkpt lat="59.1067854501" lon="30.5027880985"><ele>58.78</ele><time>2026-08-20T19:23:07Z</time></trkpt><trkpt lat="59.1067217477" lon="30.5027922895"><ele>58.78</ele><time>2026-08-20T19:23:17Z</time></trkpt><trkpt lat="59.1066608112" lon="30.5027963966"><ele>58.78</ele><time>2026-08-20T19:23:27Z</time></trkpt><trkpt lat="59.1065636650" lon="30.5028110649"><ele>58.78</ele><time>2026-08-20T19:23:35Z</time></trkpt><trkpt lat="59.1064488329" lon="30.5028274935"><ele>58.78</ele><time>2026-08-20T19:23:45Z</time></trkpt><trkpt lat="59.1063344199" lon="30.5028649606"><ele>58.78</ele><time>2026-08-20T19:23:55Z</time></trkpt><trkpt lat="59.1062210966" lon="30.5028964765"><ele>58.78</ele><time>2026-08-20T19:24:08Z</time></trkpt><trkpt lat="59.1061638482" lon="30.5029128212"><ele>58.78</ele><time>2026-08-20T19:24:21Z</time></trkpt><trkpt lat="59.1061185859" lon="30.5028108973"><ele>58.78</ele><time>2026-08-20T19:24:34Z</time></trkpt><trkpt lat="59.1060819570" lon="30.5027413275"><ele>58.78</ele><time>2026-08-20T19:24:44Z</time></trkpt><trkpt lat="59.1060886625" lon="30.5026548263"><ele>59.26</ele><time>2026-08-20T19:24:58Z</time></trkpt><trkpt lat="59.1060864832" lon="30.5026344582"><ele>59.26</ele><time>2026-08-20T19:25:10Z</time></trkpt><trkpt lat="59.1060656123" lon="30.5025339592"><ele>59.26</ele><time>2026-08-20T19:25:20Z</time></trkpt><trkpt lat="59.1059827991" lon="30.5025570933"><ele>59.26</ele><time>2026-08-20T19:25:30Z</time></trkpt><trkpt lat="59.1059445776" lon="30.5025987513"><ele>59.26</ele><time>2026-08-20T19:25:44Z</time></trkpt><trkpt lat="59.1059596650" lon="30.5025869329"><ele>59.26</ele><time>2026-08-20T19:26:05Z</time></trkpt><trkpt lat="59.1059491038" lon="30.5025718454"><ele>59.26</ele><time>2026-08-20T19:26:29Z</time></trkpt><trkpt lat="59.1059440747" lon="30.5025617033"><ele>59.26</ele><time>2026-08-20T19:26:58Z</time></trkpt><trkpt lat="59.1059467569" lon="30.5025079753"><ele>59.26</ele><time>2026-08-20T19:27:33Z</time></trkpt><trkpt lat="59.1059508640" lon="30.5024866853"><ele>59.74</ele><time>2026-08-20T19:28:05Z</time></trkpt><trkpt lat="59.1059356090" lon="30.5024930555"><ele>59.74</ele><time>2026-08-20T19:28:33Z</time></trkpt><trkpt lat="59.1059213597" lon="30.5024940614"><ele>59.74</ele><time>2026-08-20T19:29:02Z</time></trkpt><trkpt lat="59.1059120558" lon="30.5024943128"><ele>59.74</ele><time>2026-08-20T19:29:18Z</time></trkpt><trkpt lat="59.1058698110" lon="30.5025338754"><ele>59.74</ele><time>2026-08-20T19:29:31Z</time></trkpt><trkpt lat="59.1058827192" lon="30.5025258288"><ele>60.22</ele><time>2026-08-20T19:29:47Z</time></trkpt><trkpt lat="59.1058899276" lon="30.5025239848"><ele>60.22</ele><time>2026-08-20T19:30:15Z</time></trkpt><trkpt lat="59.1058891732" lon="30.5025311932"><ele>60.22</ele><time>2026-08-20T19:30:46Z</time></trkpt><trkpt lat="59.1058895923" lon="30.5025365576"><ele>60.22</ele><time>2026-08-20T19:31:07Z</time></trkpt><trkpt lat="59.1059008241" lon="30.5025462806"><ele>60.22</ele><time>2026-08-20T19:31:36Z</time></trkpt><trkpt lat="59.1058984771" lon="30.5025494657"><ele>60.70</ele><time>2026-08-20T19:32:05Z</time></trkpt><trkpt lat="59.1058999859" lon="30.5025475379"><ele>60.70</ele><time>2026-08-20T19:32:39Z</time></trkpt><trkpt lat="59.1058879998" lon="30.5025538243"><ele>60.70</ele><time>2026-08-20T19:33:09Z</time></trkpt><trkpt lat="59.1058930289" lon="30.5025700014"><ele>60.70</ele><time>2026-08-20T19:33:26Z</time></trkpt><trkpt lat="59.1058956273" lon="30.5025617033"><ele>60.70</ele><time>2026-08-20T19:34:00Z</time></trkpt><trkpt lat="59.1059306636" lon="30.5025562551"><ele>60.70</ele><time>2026-08-20T19:34:37Z</time></trkpt><trkpt lat="59.1059397161" lon="30.5025565065"><ele>61.18</ele><time>2026-08-20T19:35:18Z</time></trkpt><trkpt lat="59.1059486847" lon="30.5025468674"><ele>61.18</ele><time>2026-08-20T19:35:50Z</time></trkpt><trkpt lat="59.1059742495" lon="30.5025226437"><ele>61.18</ele><time>2026-08-20T19:36:31Z</time></trkpt><trkpt lat="59.1059732437" lon="30.5025045387"><ele>61.18</ele><time>2026-08-20T19:37:10Z</time></trkpt><trkpt lat="59.1059759259" lon="30.5025236495"><ele>61.18</ele><time>2026-08-20T19:37:46Z</time></trkpt><trkpt lat="59.1059764288" lon="30.5025376473"><ele>61.18</ele><time>2026-08-20T19:38:16Z</time></trkpt><trkpt lat="59.1059794463" lon="30.5025575124"><ele>61.18</ele><time>2026-08-20T19:38:54Z</time></trkpt><trkpt lat="59.1059791110" lon="30.5025731865"><ele>61.18</ele><time>2026-08-20T19:39:26Z</time></trkpt><trkpt lat="59.1059792787" lon="30.5025786348"><ele>61.18</ele><time>2026-08-20T19:40:00Z</time></trkpt><trkpt lat="59.1059871577" lon="30.5025718454"><ele>61.18</ele><time>2026-08-20T19:40:33Z</time></trkpt><trkpt lat="59.1060380358" lon="30.5025145132"><ele>61.66</ele><time>2026-08-20T19:40:57Z</time></trkpt><trkpt lat="59.1060045082" lon="30.5024684127"><ele>61.66</ele><time>2026-08-20T19:41:22Z</time></trkpt><trkpt lat="59.1059974674" lon="30.5024700053"><ele>61.66</ele><time>2026-08-20T19:41:56Z</time></trkpt><trkpt lat="59.1059689689" lon="30.5024972465"><ele>61.66</ele><time>2026-08-20T19:42:33Z</time></trkpt><trkpt lat="59.1059470922" lon="30.5024877749"><ele>61.66</ele><time>2026-08-20T19:43:13Z</time></trkpt><trkpt lat="59.1059320047" lon="30.5024793930"><ele>62.14</ele><time>2026-08-20T19:43:47Z</time></trkpt><trkpt lat="59.1059323400" lon="30.5025125016"><ele>62.14</ele><time>2026-08-20T19:44:08Z</time></trkpt><trkpt lat="59.1059335135" lon="30.5025347974"><ele>62.62</ele><time>2026-08-20T19:44:28Z</time></trkpt><trkpt lat="59.1058593336" lon="30.5025647208"><ele>62.62</ele><time>2026-08-20T19:44:44Z</time></trkpt><trkpt lat="59.1057863273" lon="30.5025549140"><ele>62.62</ele><time>2026-08-20T19:45:00Z</time></trkpt><trkpt lat="59.1057628579" lon="30.5025555845"><ele>62.62</ele><time>2026-08-20T19:45:28Z</time></trkpt><trkpt lat="59.1057750117" lon="30.5024930555"><ele>62.62</ele><time>2026-08-20T19:45:42Z</time></trkpt><trkpt lat="59.1057867464" lon="30.5022909679"><ele>62.62</ele><time>2026-08-20T19:45:54Z</time></trkpt><trkpt lat="59.1057375446" lon="30.5022010300"><ele>63.10</ele><time>2026-08-20T19:46:07Z</time></trkpt><trkpt lat="59.1057211161" lon="30.5020739604"><ele>63.10</ele><time>2026-08-20T19:46:20Z</time></trkpt><trkpt lat="59.1057118122" lon="30.5019782390"><ele>63.10</ele><time>2026-08-20T19:46:31Z</time></trkpt><trkpt lat="59.1057053581" lon="30.5018924084"><ele>62.62</ele><time>2026-08-20T19:46:46Z</time></trkpt><trkpt lat="59.1057116445" lon="30.5017681047"><ele>62.62</ele><time>2026-08-20T19:47:03Z</time></trkpt><trkpt lat="59.1056802962" lon="30.5016551167"><ele>62.62</ele><time>2026-08-20T19:47:15Z</time></trkpt><trkpt lat="59.1056546476" lon="30.5015293881"><ele>62.62</ele><time>2026-08-20T19:47:25Z</time></trkpt><trkpt lat="59.1056505404" lon="30.5014733970"><ele>62.62</ele><time>2026-08-20T19:47:29Z</time></trkpt><trkpt lat="59.1056713276" lon="30.5013003945"><ele>62.62</ele><time>2026-08-20T19:47:43Z</time></trkpt><trkpt lat="59.1056605149" lon="30.5011972971"><ele>62.62</ele><time>2026-08-20T19:47:56Z</time></trkpt><trkpt lat="59.1056673881" lon="30.5011248775"><ele>62.62</ele><time>2026-08-20T19:48:13Z</time></trkpt><trkpt lat="59.1056414880" lon="30.5009975564"><ele>62.62</ele><time>2026-08-20T19:48:33Z</time></trkpt><trkpt lat="59.1055746004" lon="30.5009224545"><ele>63.10</ele><time>2026-08-20T19:48:47Z</time></trkpt><trkpt lat="59.1055719182" lon="30.5008680560"><ele>63.10</ele><time>2026-08-20T19:49:01Z</time></trkpt><trkpt lat="59.1056131572" lon="30.5008127354"><ele>63.10</ele><time>2026-08-20T19:49:13Z</time></trkpt><trkpt lat="59.1057030112" lon="30.5008103885"><ele>63.10</ele><time>2026-08-20T19:49:30Z</time></trkpt><trkpt lat="59.1057086270" lon="30.5007927865"><ele>63.10</ele><time>2026-08-20T19:50:00Z</time></trkpt><trkpt lat="59.1057239659" lon="30.5007500388"><ele>62.62</ele><time>2026-08-20T19:50:21Z</time></trkpt><trkpt lat="59.1056909412" lon="30.5006173532"><ele>62.62</ele><time>2026-08-20T19:50:35Z</time></trkpt><trkpt lat="59.1056455951" lon="30.5004206300"><ele>62.62</ele><time>2026-08-20T19:50:47Z</time></trkpt><trkpt lat="59.1056142468" lon="30.5002976675"><ele>62.62</ele><time>2026-08-20T19:51:04Z</time></trkpt><trkpt lat="59.1055722535" lon="30.5001843441"><ele>62.62</ele><time>2026-08-20T19:51:18Z</time></trkpt><trkpt lat="59.1055603512" lon="30.5000764690"><ele>62.62</ele><time>2026-08-20T19:51:32Z</time></trkpt><trkpt lat="59.1055430006" lon="30.4999230802"><ele>62.62</ele><time>2026-08-20T19:51:47Z</time></trkpt><trkpt lat="59.1055350378" lon="30.4997942504"><ele>62.62</ele><time>2026-08-20T19:52:00Z</time></trkpt><trkpt lat="59.1055304278" lon="30.4996496625"><ele>62.62</ele><time>2026-08-20T19:52:13Z</time></trkpt><trkpt lat="59.1055181064" lon="30.4995932523"><ele>62.14</ele><time>2026-08-20T19:52:24Z</time></trkpt><trkpt lat="59.1055073775" lon="30.4995503370"><ele>62.14</ele><time>2026-08-20T19:52:29Z</time></trkpt><trkpt lat="59.1055079643" lon="30.4994655121"><ele>62.14</ele><time>2026-08-20T19:52:39Z</time></trkpt><trkpt lat="59.1055016778" lon="30.4993510991"><ele>62.14</ele><time>2026-08-20T19:52:49Z</time></trkpt><trkpt lat="59.1055088863" lon="30.4993047472"><ele>62.14</ele><time>2026-08-20T19:52:59Z</time></trkpt><trkpt lat="59.1055007558" lon="30.4992671125"><ele>62.14</ele><time>2026-08-20T19:53:21Z</time></trkpt><trkpt lat="59.1054590978" lon="30.4991967045"><ele>62.14</ele><time>2026-08-20T19:53:31Z</time></trkpt><trkpt lat="59.1054536495" lon="30.4990851413"><ele>62.14</ele><time>2026-08-20T19:53:43Z</time></trkpt><trkpt lat="59.1054586787" lon="30.4990743287"><ele>62.14</ele><time>2026-08-20T19:53:57Z</time></trkpt><trkpt lat="59.1054605227" lon="30.4990146495"><ele>61.66</ele><time>2026-08-20T19:54:11Z</time></trkpt><trkpt lat="59.1054700781" lon="30.4989744164"><ele>61.66</ele><time>2026-08-20T19:54:18Z</time></trkpt><trkpt lat="59.1054490395" lon="30.4988952912"><ele>61.66</ele><time>2026-08-20T19:54:31Z</time></trkpt><trkpt lat="59.1054308508" lon="30.4987822194"><ele>61.66</ele><time>2026-08-20T19:54:41Z</time></trkpt><trkpt lat="59.1054042801" lon="30.4986932036"><ele>61.66</ele><time>2026-08-20T19:54:51Z</time></trkpt><trkpt lat="59.1054036096" lon="30.4986280762"><ele>61.66</ele><time>2026-08-20T19:55:00Z</time></trkpt><trkpt lat="59.1054215468" lon="30.4985463526"><ele>61.66</ele><time>2026-08-20T19:55:12Z</time></trkpt><trkpt lat="59.1054078843" lon="30.4984948039"><ele>61.18</ele><time>2026-08-20T19:55:24Z</time></trkpt><trkpt lat="59.1053591855" lon="30.4984612763"><ele>61.18</ele><time>2026-08-20T19:55:37Z</time></trkpt><trkpt lat="59.1053698305" lon="30.4984176066"><ele>61.18</ele><time>2026-08-20T19:55:48Z</time></trkpt><trkpt lat="59.1053752787" lon="30.4983782955"><ele>61.18</ele><time>2026-08-20T19:55:59Z</time></trkpt><trkpt lat="59.1053649690" lon="30.4983190354"><ele>61.18</ele><time>2026-08-20T19:56:11Z</time></trkpt><trkpt lat="59.1053830739" lon="30.4982283432"><ele>61.18</ele><time>2026-08-20T19:56:25Z</time></trkpt><trkpt lat="59.1053828225" lon="30.4982119985"><ele>60.70</ele><time>2026-08-20T19:56:51Z</time></trkpt><trkpt lat="59.1053778771" lon="30.4982039519"><ele>60.70</ele><time>2026-08-20T19:57:13Z</time></trkpt><trkpt lat="59.1053736024" lon="30.4981320351"><ele>60.70</ele><time>2026-08-20T19:57:28Z</time></trkpt><trkpt lat="59.1053700820" lon="30.4980842583"><ele>60.70</ele><time>2026-08-20T19:57:43Z</time></trkpt><trkpt lat="59.1053507198" lon="30.4980358947"><ele>60.70</ele><time>2026-08-20T19:57:54Z</time></trkpt><trkpt lat="59.1052974109" lon="30.4979636427"><ele>60.70</ele><time>2026-08-20T19:58:08Z</time></trkpt><trkpt lat="59.1052704211" lon="30.4978985991"><ele>60.70</ele><time>2026-08-20T19:58:17Z</time></trkpt><trkpt lat="59.1052421741" lon="30.4978675861"><ele>60.22</ele><time>2026-08-20T19:58:31Z</time></trkpt><trkpt lat="59.1052075569" lon="30.4978103377"><ele>60.22</ele><time>2026-08-20T19:58:43Z</time></trkpt><trkpt lat="59.1051920503" lon="30.4976903088"><ele>60.22</ele><time>2026-08-20T19:58:56Z</time></trkpt><trkpt lat="59.1052412521" lon="30.4975925758"><ele>60.22</ele><time>2026-08-20T19:59:06Z</time></trkpt><trkpt lat="59.1052467842" lon="30.4975388478"><ele>60.22</ele><time>2026-08-20T19:59:20Z</time></trkpt><trkpt lat="59.1052557528" lon="30.4975079186"><ele>60.22</ele><time>2026-08-20T19:59:34Z</time></trkpt><trkpt lat="59.1052621230" lon="30.4974565376"><ele>60.22</ele><time>2026-08-20T19:59:49Z</time></trkpt><trkpt lat="59.1052448563" lon="30.4973294679"><ele>59.74</ele><time>2026-08-20T20:00:00Z</time></trkpt><trkpt lat="59.1052452754" lon="30.4972940125"><ele>59.74</ele><time>2026-08-20T20:00:21Z</time></trkpt><trkpt lat="59.1052597761" lon="30.4972868040"><ele>59.74</ele><time>2026-08-20T20:00:41Z</time></trkpt><trkpt lat="59.1052687448" lon="30.4972526897"><ele>59.74</ele><time>2026-08-20T20:00:53Z</time></trkpt><trkpt lat="59.1052917950" lon="30.4971952736"><ele>59.74</ele><time>2026-08-20T20:01:05Z</time></trkpt><trkpt lat="59.1053339560" lon="30.4971764982"><ele>59.74</ele><time>2026-08-20T20:01:18Z</time></trkpt><trkpt lat="59.1053559165" lon="30.4971714690"><ele>59.26</ele><time>2026-08-20T20:01:30Z</time></trkpt><trkpt lat="59.1053993348" lon="30.4971733131"><ele>59.26</ele><time>2026-08-20T20:01:40Z</time></trkpt><trkpt lat="59.1054129135" lon="30.4971112870"><ele>59.26</ele><time>2026-08-20T20:01:51Z</time></trkpt><trkpt lat="59.1054285876" lon="30.4970736522"><ele>59.26</ele><time>2026-08-20T20:02:03Z</time></trkpt><trkpt lat="59.1054331139" lon="30.4970529489"><ele>59.26</ele><time>2026-08-20T20:02:18Z</time></trkpt><trkpt lat="59.1054496262" lon="30.4969811998"><ele>59.26</ele><time>2026-08-20T20:02:30Z</time></trkpt><trkpt lat="59.1053918749" lon="30.4968624283"><ele>59.26</ele><time>2026-08-20T20:02:43Z</time></trkpt><trkpt lat="59.1053666454" lon="30.4968248773"><ele>59.26</ele><time>2026-08-20T20:02:51Z</time></trkpt><trkpt lat="59.1053623706" lon="30.4967740830"><ele>59.26</ele><time>2026-08-20T20:03:03Z</time></trkpt><trkpt lat="59.1053601075" lon="30.4966945387"><ele>58.78</ele><time>2026-08-20T20:03:16Z</time></trkpt><trkpt lat="59.1053425055" lon="30.4965630267"><ele>58.78</ele><time>2026-08-20T20:03:30Z</time></trkpt><trkpt lat="59.1053305194" lon="30.4964595102"><ele>58.78</ele><time>2026-08-20T20:03:42Z</time></trkpt><trkpt lat="59.1052982491" lon="30.4962994996"><ele>58.78</ele><time>2026-08-20T20:03:57Z</time></trkpt><trkpt lat="59.1052667331" lon="30.4962306842"><ele>58.78</ele><time>2026-08-20T20:04:11Z</time></trkpt><trkpt lat="59.1052729357" lon="30.4961949773"><ele>58.78</ele><time>2026-08-20T20:04:24Z</time></trkpt><trkpt lat="59.1052393243" lon="30.4960669018"><ele>58.78</ele><time>2026-08-20T20:04:37Z</time></trkpt><trkpt lat="59.1052355524" lon="30.4959547520"><ele>58.78</ele><time>2026-08-20T20:04:48Z</time></trkpt><trkpt lat="59.1051918827" lon="30.4958162829"><ele>58.78</ele><time>2026-08-20T20:05:03Z</time></trkpt><trkpt lat="59.1051615402" lon="30.4957255069"><ele>58.78</ele><time>2026-08-20T20:05:15Z</time></trkpt><trkpt lat="59.1051454470" lon="30.4956266005"><ele>58.78</ele><time>2026-08-20T20:05:25Z</time></trkpt><trkpt lat="59.1051108297" lon="30.4954623152"><ele>58.30</ele><time>2026-08-20T20:05:37Z</time></trkpt><trkpt lat="59.1050921381" lon="30.4953191523"><ele>58.30</ele><time>2026-08-20T20:05:48Z</time></trkpt><trkpt lat="59.1050894558" lon="30.4952702019"><ele>58.30</ele><time>2026-08-20T20:05:54Z</time></trkpt><trkpt lat="59.1050877795" lon="30.4951844551"><ele>58.30</ele><time>2026-08-20T20:06:06Z</time></trkpt><trkpt lat="59.1050958261" lon="30.4951697029"><ele>58.30</ele><time>2026-08-20T20:06:16Z</time></trkpt><trkpt lat="59.1051104106" lon="30.4951394442"><ele>58.30</ele><time>2026-08-20T20:06:18Z</time></trkpt><trkpt lat="59.1051239893" lon="30.4950768314"><ele>58.30</ele><time>2026-08-20T20:06:23Z</time></trkpt><trkpt lat="59.1051429324" lon="30.4949351773"><ele>58.30</ele><time>2026-08-20T20:06:34Z</time></trkpt><trkpt lat="59.1050907969" lon="30.4948324151"><ele>58.30</ele><time>2026-08-20T20:06:46Z</time></trkpt><trkpt lat="59.1050798167" lon="30.4947184213"><ele>58.30</ele><time>2026-08-20T20:06:58Z</time></trkpt><trkpt lat="59.1050514858" lon="30.4945983924"><ele>58.30</ele><time>2026-08-20T20:07:11Z</time></trkpt><trkpt lat="59.1050802357" lon="30.4944687244"><ele>58.30</ele><time>2026-08-20T20:07:24Z</time></trkpt><trkpt lat="59.1050633043" lon="30.4943281598"><ele>58.30</ele><time>2026-08-20T20:07:37Z</time></trkpt><trkpt lat="59.1050224844" lon="30.4942715820"><ele>57.82</ele><time>2026-08-20T20:07:47Z</time></trkpt><trkpt lat="59.1050260048" lon="30.4941878468"><ele>57.82</ele><time>2026-08-20T20:07:59Z</time></trkpt><trkpt lat="59.1050234903" lon="30.4941369686"><ele>57.82</ele><time>2026-08-20T20:08:11Z</time></trkpt><trkpt lat="59.1050363146" lon="30.4940240644"><ele>57.82</ele><time>2026-08-20T20:08:24Z</time></trkpt><trkpt lat="59.1050333809" lon="30.4939316120"><ele>57.82</ele><time>2026-08-20T20:08:34Z</time></trkpt><trkpt lat="59.1050793976" lon="30.4938417580"><ele>57.82</ele><time>2026-08-20T20:08:47Z</time></trkpt><trkpt lat="59.1050225683" lon="30.4937802348"><ele>57.82</ele><time>2026-08-20T20:09:01Z</time></trkpt><trkpt lat="59.1050022840" lon="30.4937062226"><ele>57.82</ele><time>2026-08-20T20:09:13Z</time></trkpt><trkpt lat="59.1049690079" lon="30.4936707672"><ele>57.82</ele><time>2026-08-20T20:09:27Z</time></trkpt><trkpt lat="59.1049513221" lon="30.4936036281"><ele>57.34</ele><time>2026-08-20T20:09:39Z</time></trkpt><trkpt lat="59.1049498133" lon="30.4934538435"><ele>57.34</ele><time>2026-08-20T20:09:50Z</time></trkpt><trkpt lat="59.1049698461" lon="30.4933386762"><ele>57.34</ele><time>2026-08-20T20:10:01Z</time></trkpt><trkpt lat="59.1049599554" lon="30.4931772407"><ele>57.34</ele><time>2026-08-20T20:10:14Z</time></trkpt><trkpt lat="59.1049621347" lon="30.4931473173"><ele>57.34</ele><time>2026-08-20T20:10:31Z</time></trkpt><trkpt lat="59.1049650684" lon="30.4931510054"><ele>57.34</ele><time>2026-08-20T20:10:55Z</time></trkpt><trkpt lat="59.1049692594" lon="30.4931318946"><ele>57.34</ele><time>2026-08-20T20:11:20Z</time></trkpt><trkpt lat="59.1049530823" lon="30.4930026457"><ele>56.86</ele><time>2026-08-20T20:11:32Z</time></trkpt><trkpt lat="59.1049484722" lon="30.4928918369"><ele>56.86</ele><time>2026-08-20T20:11:43Z</time></trkpt><trkpt lat="59.1049545072" lon="30.4928050842"><ele>56.86</ele><time>2026-08-20T20:11:52Z</time></trkpt><trkpt lat="59.1049312893" lon="30.4926740751"><ele>56.86</ele><time>2026-08-20T20:12:05Z</time></trkpt><trkpt lat="59.1048875358" lon="30.4925470054"><ele>56.86</ele><time>2026-08-20T20:12:16Z</time></trkpt><trkpt lat="59.1048773937" lon="30.4923775233"><ele>56.86</ele><time>2026-08-20T20:12:26Z</time></trkpt><trkpt lat="59.1048929002" lon="30.4922748450"><ele>56.86</ele><time>2026-08-20T20:12:37Z</time></trkpt><trkpt lat="59.1049087420" lon="30.4921952169"><ele>56.86</ele><time>2026-08-20T20:12:51Z</time></trkpt><trkpt lat="59.1049098317" lon="30.4920993280"><ele>56.37</ele><time>2026-08-20T20:13:00Z</time></trkpt><trkpt lat="59.1049523279" lon="30.4919080529"><ele>56.37</ele><time>2026-08-20T20:13:11Z</time></trkpt><trkpt lat="59.1049530823" lon="30.4917518143"><ele>56.37</ele><time>2026-08-20T20:13:22Z</time></trkpt><trkpt lat="59.1049459577" lon="30.4916897882"><ele>56.37</ele><time>2026-08-20T20:13:33Z</time></trkpt><trkpt lat="59.1049724445" lon="30.4916210566"><ele>56.37</ele><time>2026-08-20T20:13:44Z</time></trkpt><trkpt lat="59.1049616318" lon="30.4915712681"><ele>56.37</ele><time>2026-08-20T20:13:56Z</time></trkpt><trkpt lat="59.1049276851" lon="30.4914913047"><ele>56.37</ele><time>2026-08-20T20:14:09Z</time></trkpt><trkpt lat="59.1048605461" lon="30.4914241657"><ele>56.37</ele><time>2026-08-20T20:14:21Z</time></trkpt><trkpt lat="59.1048337240" lon="30.4913691804"><ele>56.37</ele><time>2026-08-20T20:14:36Z</time></trkpt><trkpt lat="59.1048328858" lon="30.4913369939"><ele>56.37</ele><time>2026-08-20T20:14:50Z</time></trkpt><trkpt lat="59.1048121825" lon="30.4912142828"><ele>55.89</ele><time>2026-08-20T20:15:02Z</time></trkpt><trkpt lat="59.1048002802" lon="30.4910426214"><ele>55.89</ele><time>2026-08-20T20:15:14Z</time></trkpt><trkpt lat="59.1047910601" lon="30.4909863789"><ele>54.93</ele><time>2026-08-20T20:15:28Z</time></trkpt><trkpt lat="59.1047867853" lon="30.4909313936"><ele>54.93</ele><time>2026-08-20T20:15:47Z</time></trkpt><trkpt lat="59.1048015375" lon="30.4907592293"><ele>54.93</ele><time>2026-08-20T20:15:59Z</time></trkpt><trkpt lat="59.1047780681" lon="30.4906836245"><ele>54.93</ele><time>2026-08-20T20:16:13Z</time></trkpt><trkpt lat="59.1047687642" lon="30.4906690400"><ele>54.93</ele><time>2026-08-20T20:16:15Z</time></trkpt><trkpt lat="59.1047649924" lon="30.4905205965"><ele>54.93</ele><time>2026-08-20T20:16:24Z</time></trkpt><trkpt lat="59.1048047226" lon="30.4904219415"><ele>54.93</ele><time>2026-08-20T20:16:33Z</time></trkpt><trkpt lat="59.1047930717" lon="30.4903579038"><ele>54.45</ele><time>2026-08-20T20:16:43Z</time></trkpt><trkpt lat="59.1047930717" lon="30.4903555568"><ele>54.45</ele><time>2026-08-20T20:16:46Z</time></trkpt><trkpt lat="59.1047463845" lon="30.4902923573"><ele>54.45</ele><time>2026-08-20T20:16:57Z</time></trkpt><trkpt lat="59.1047678422" lon="30.4902755935"><ele>54.45</ele><time>2026-08-20T20:17:16Z</time></trkpt><trkpt lat="59.1047746316" lon="30.4902621824"><ele>54.93</ele><time>2026-08-20T20:17:39Z</time></trkpt><trkpt lat="59.1047478933" lon="30.4902270623"><ele>54.93</ele><time>2026-08-20T20:17:57Z</time></trkpt><trkpt lat="59.1047135275" lon="30.4900628608"><ele>54.93</ele><time>2026-08-20T20:18:09Z</time></trkpt><trkpt lat="59.1047096718" lon="30.4899154231"><ele>54.93</ele><time>2026-08-20T20:18:19Z</time></trkpt><trkpt lat="59.1046913993" lon="30.4897946399"><ele>54.93</ele><time>2026-08-20T20:18:30Z</time></trkpt><trkpt lat="59.1047113482" lon="30.4896890279"><ele>54.45</ele><time>2026-08-20T20:18:42Z</time></trkpt><trkpt lat="59.1047140304" lon="30.4896300193"><ele>54.45</ele><time>2026-08-20T20:18:57Z</time></trkpt><trkpt lat="59.1046880465" lon="30.4895281792"><ele>54.45</ele><time>2026-08-20T20:19:11Z</time></trkpt><trkpt lat="59.1046827659" lon="30.4894971661"><ele>54.45</ele><time>2026-08-20T20:19:31Z</time></trkpt><trkpt lat="59.1046929080" lon="30.4894918017"><ele>54.45</ele><time>2026-08-20T20:19:48Z</time></trkpt><trkpt lat="59.1046708636" lon="30.4894433543"><ele>54.45</ele><time>2026-08-20T20:20:03Z</time></trkpt><trkpt lat="59.1046658345" lon="30.4893152788"><ele>54.45</ele><time>2026-08-20T20:20:15Z</time></trkpt><trkpt lat="59.1046625655" lon="30.4893086571"><ele>55.89</ele><time>2026-08-20T20:20:22Z</time></trkpt><trkpt lat="59.1046277806" lon="30.4892732017"><ele>55.89</ele><time>2026-08-20T20:20:43Z</time></trkpt><trkpt lat="59.1046336479" lon="30.4891561903"><ele>55.89</ele><time>2026-08-20T20:20:54Z</time></trkpt><trkpt lat="59.1046343185" lon="30.4891490657"><ele>55.89</ele><time>2026-08-20T20:20:57Z</time></trkpt><trkpt lat="59.1046344023" lon="30.4890574515"><ele>55.89</ele><time>2026-08-20T20:21:09Z</time></trkpt><trkpt lat="59.1046082508" lon="30.4889551923"><ele>55.89</ele><time>2026-08-20T20:21:21Z</time></trkpt><trkpt lat="59.1046097595" lon="30.4888924118"><ele>55.89</ele><time>2026-08-20T20:21:27Z</time></trkpt><trkpt lat="59.1046474781" lon="30.4887800943"><ele>55.41</ele><time>2026-08-20T20:21:39Z</time></trkpt><trkpt lat="59.1046297085" lon="30.4887149669"><ele>55.41</ele><time>2026-08-20T20:21:50Z</time></trkpt><trkpt lat="59.1046337318" lon="30.4887067527"><ele>55.41</ele><time>2026-08-20T20:22:04Z</time></trkpt><trkpt lat="59.1046276968" lon="30.4886623286"><ele>55.41</ele><time>2026-08-20T20:22:17Z</time></trkpt><trkpt lat="59.1046098433" lon="30.4885247815"><ele>55.41</ele><time>2026-08-20T20:22:27Z</time></trkpt><trkpt lat="59.1045875475" lon="30.4884656891"><ele>54.45</ele><time>2026-08-20T20:22:41Z</time></trkpt><trkpt lat="59.1045340709" lon="30.4883320816"><ele>54.45</ele><time>2026-08-20T20:22:52Z</time></trkpt><trkpt lat="59.1045051534" lon="30.4881413095"><ele>54.45</ele><time>2026-08-20T20:23:05Z</time></trkpt><trkpt lat="59.1045210790" lon="30.4880521260"><ele>54.45</ele><time>2026-08-20T20:23:19Z</time></trkpt><trkpt lat="59.1045518406" lon="30.4880084563"><ele>54.45</ele><time>2026-08-20T20:23:24Z</time></trkpt><trkpt lat="59.1045852844" lon="30.4878776986"><ele>54.45</ele><time>2026-08-20T20:23:37Z</time></trkpt><trkpt lat="59.1045471467" lon="30.4877518862"><ele>54.45</ele><time>2026-08-20T20:23:49Z</time></trkpt><trkpt lat="59.1044924129" lon="30.4876120761"><ele>54.45</ele><time>2026-08-20T20:24:02Z</time></trkpt><trkpt lat="59.1044635791" lon="30.4875259940"><ele>54.45</ele><time>2026-08-20T20:24:16Z</time></trkpt><trkpt lat="59.1044789180" lon="30.4874073062"><ele>54.45</ele><time>2026-08-20T20:24:30Z</time></trkpt><trkpt lat="59.1045022197" lon="30.4872733634"><ele>54.45</ele><time>2026-08-20T20:24:42Z</time></trkpt><trkpt lat="59.1045007948" lon="30.4871476348"><ele>54.45</ele><time>2026-08-20T20:24:52Z</time></trkpt><trkpt lat="59.1044805106" lon="30.4870508239"><ele>54.45</ele><time>2026-08-20T20:25:07Z</time></trkpt><trkpt lat="59.1044458933" lon="30.4869125225"><ele>54.45</ele><time>2026-08-20T20:25:20Z</time></trkpt><trkpt lat="59.1044345777" lon="30.4868292063"><ele>54.45</ele><time>2026-08-20T20:25:26Z</time></trkpt><trkpt lat="59.1044323985" lon="30.4866818525"><ele>54.45</ele><time>2026-08-20T20:25:38Z</time></trkpt><trkpt lat="59.1044878867" lon="30.4866073374"><ele>54.45</ele><time>2026-08-20T20:25:51Z</time></trkpt><trkpt lat="59.1044826899" lon="30.4865070060"><ele>54.45</ele><time>2026-08-20T20:26:01Z</time></trkpt><trkpt lat="59.1044219211" lon="30.4863241129"><ele>54.45</ele><time>2026-08-20T20:26:13Z</time></trkpt><trkpt lat="59.1044080909" lon="30.4862177465"><ele>54.45</ele><time>2026-08-20T20:26:25Z</time></trkpt><trkpt lat="59.1043915786" lon="30.4861804470"><ele>53.97</ele><time>2026-08-20T20:26:40Z</time></trkpt><trkpt lat="59.1043954343" lon="30.4860970471"><ele>53.97</ele><time>2026-08-20T20:26:55Z</time></trkpt><trkpt lat="59.1044033132" lon="30.4860622622"><ele>53.97</ele><time>2026-08-20T20:27:19Z</time></trkpt><trkpt lat="59.1043924168" lon="30.4860064387"><ele>53.97</ele><time>2026-08-20T20:27:34Z</time></trkpt><trkpt lat="59.1043695342" lon="30.4859657865"><ele>54.93</ele><time>2026-08-20T20:27:48Z</time></trkpt><trkpt lat="59.1043510102" lon="30.4858936183"><ele>54.93</ele><time>2026-08-20T20:27:58Z</time></trkpt><trkpt lat="59.1043205000" lon="30.4857203644"><ele>54.93</ele><time>2026-08-20T20:28:09Z</time></trkpt><trkpt lat="59.1043293849" lon="30.4856998287"><ele>54.93</ele><time>2026-08-20T20:28:12Z</time></trkpt><trkpt lat="59.1043430474" lon="30.4855471104"><ele>54.93</ele><time>2026-08-20T20:28:24Z</time></trkpt><trkpt lat="59.1043289658" lon="30.4855088890"><ele>54.93</ele><time>2026-08-20T20:28:27Z</time></trkpt><trkpt lat="59.1043234337" lon="30.4854031932"><ele>54.93</ele><time>2026-08-20T20:28:37Z</time></trkpt><trkpt lat="59.1043171473" lon="30.4853516445"><ele>54.93</ele><time>2026-08-20T20:28:42Z</time></trkpt><trkpt lat="59.1043261159" lon="30.4851575196"><ele>54.93</ele><time>2026-08-20T20:28:54Z</time></trkpt><trkpt lat="59.1043477412" lon="30.4850923922"><ele>54.93</ele><time>2026-08-20T20:29:00Z</time></trkpt><trkpt lat="59.1043676063" lon="30.4850393347"><ele>54.93</ele><time>2026-08-20T20:29:12Z</time></trkpt><trkpt lat="59.1043941770" lon="30.4850313719"><ele>54.93</ele><time>2026-08-20T20:29:40Z</time></trkpt><trkpt lat="59.1043905728" lon="30.4850183800"><ele>54.93</ele><time>2026-08-20T20:30:08Z</time></trkpt><trkpt lat="59.1043160576" lon="30.4850504827"><ele>54.93</ele><time>2026-08-20T20:30:24Z</time></trkpt><trkpt lat="59.1042413749" lon="30.4850964155"><ele>54.93</ele><time>2026-08-20T20:30:38Z</time></trkpt><trkpt lat="59.1041951906" lon="30.4850657377"><ele>53.49</ele><time>2026-08-20T20:30:52Z</time></trkpt><trkpt lat="59.1041982081" lon="30.4850999359"><ele>53.49</ele><time>2026-08-20T20:31:28Z</time></trkpt><trkpt lat="59.1041834559" lon="30.4851618782"><ele>53.49</ele><time>2026-08-20T20:31:41Z</time></trkpt><trkpt lat="59.1041794326" lon="30.4851852637"><ele>53.49</ele><time>2026-08-20T20:31:43Z</time></trkpt><trkpt lat="59.1041239444" lon="30.4853962362"><ele>54.45</ele><time>2026-08-20T20:31:57Z</time></trkpt><trkpt lat="59.1040992178" lon="30.4855673108"><ele>54.45</ele><time>2026-08-20T20:32:09Z</time></trkpt><trkpt lat="59.1041465756" lon="30.4857174307"><ele>54.45</ele><time>2026-08-20T20:32:23Z</time></trkpt><trkpt lat="59.1041579749" lon="30.4858429078"><ele>53.97</ele><time>2026-08-20T20:32:36Z</time></trkpt><trkpt lat="59.1041749902" lon="30.4859635234"><ele>53.97</ele><time>2026-08-20T20:32:51Z</time></trkpt><trkpt lat="59.1041274648" lon="30.4861584865"><ele>53.97</ele><time>2026-08-20T20:33:04Z</time></trkpt><trkpt lat="59.1041540354" lon="30.4863029905"><ele>53.97</ele><time>2026-08-20T20:33:17Z</time></trkpt><trkpt lat="59.1041970346" lon="30.4864969477"><ele>53.97</ele><time>2026-08-20T20:33:30Z</time></trkpt><trkpt lat="59.1042209230" lon="30.4866742250"><ele>53.97</ele><time>2026-08-20T20:33:45Z</time></trkpt><trkpt lat="59.1042250302" lon="30.4867105186"><ele>54.45</ele><time>2026-08-20T20:34:00Z</time></trkpt><trkpt lat="59.1042183246" lon="30.4866956826"><ele>54.45</ele><time>2026-08-20T20:34:29Z</time></trkpt><trkpt lat="59.1042238567" lon="30.4866919108"><ele>54.45</ele><time>2026-08-20T20:35:02Z</time></trkpt><trkpt lat="59.1042120382" lon="30.4867154639"><ele>54.45</ele><time>2026-08-20T20:35:24Z</time></trkpt><trkpt lat="59.1042086016" lon="30.4867186490"><ele>54.45</ele><time>2026-08-20T20:35:48Z</time></trkpt><trkpt lat="59.1042040754" lon="30.4867226724"><ele>54.45</ele><time>2026-08-20T20:36:08Z</time></trkpt><trkpt lat="59.1042054165" lon="30.4867161345"><ele>54.45</ele><time>2026-08-20T20:36:28Z</time></trkpt><trkpt lat="59.1042252816" lon="30.4867163021"><ele>54.45</ele><time>2026-08-20T20:36:44Z</time></trkpt><trkpt lat="59.1042264551" lon="30.4867366701"><ele>54.45</ele><time>2026-08-20T20:37:06Z</time></trkpt><trkpt lat="59.1042256169" lon="30.4867420346"><ele>54.45</ele><time>2026-08-20T20:37:24Z</time></trkpt><trkpt lat="59.1042155586" lon="30.4867343232"><ele>54.45</ele><time>2026-08-20T20:37:48Z</time></trkpt><trkpt lat="59.1042100266" lon="30.4867356643"><ele>54.45</ele><time>2026-08-20T20:38:08Z</time></trkpt><trkpt lat="59.1041960288" lon="30.4867192358"><ele>54.45</ele><time>2026-08-20T20:38:27Z</time></trkpt><trkpt lat="59.1041902453" lon="30.4867139552"><ele>54.45</ele><time>2026-08-20T20:38:53Z</time></trkpt><trkpt lat="59.1041982081" lon="30.4866955150"><ele>54.45</ele><time>2026-08-20T20:39:09Z</time></trkpt><trkpt lat="59.1042299755" lon="30.4865990393"><ele>54.45</ele><time>2026-08-20T20:39:23Z</time></trkpt><trkpt lat="59.1042114515" lon="30.4864535294"><ele>54.45</ele><time>2026-08-20T20:39:36Z</time></trkpt><trkpt lat="59.1041982919" lon="30.4864015616"><ele>53.49</ele><time>2026-08-20T20:39:50Z</time></trkpt><trkpt lat="59.1041755769" lon="30.4862216860"><ele>53.49</ele><time>2026-08-20T20:40:05Z</time></trkpt><trkpt lat="59.1041578073" lon="30.4860811215"><ele>53.97</ele><time>2026-08-20T20:40:19Z</time></trkpt><trkpt lat="59.1041429713" lon="30.4859548062"><ele>53.97</ele><time>2026-08-20T20:40:30Z</time></trkpt><trkpt lat="59.1041264590" lon="30.4859136511"><ele>53.97</ele><time>2026-08-20T20:40:45Z</time></trkpt><trkpt lat="59.1041058395" lon="30.4858281557"><ele>53.97</ele><time>2026-08-20T20:40:57Z</time></trkpt><trkpt lat="59.1040647682" lon="30.4857481085"><ele>53.97</ele><time>2026-08-20T20:41:07Z</time></trkpt><trkpt lat="59.1040053405" lon="30.4856237210"><ele>53.97</ele><time>2026-08-20T20:41:19Z</time></trkpt><trkpt lat="59.1039661970" lon="30.4855356272"><ele>53.97</ele><time>2026-08-20T20:41:32Z</time></trkpt><trkpt lat="59.1039537080" lon="30.4854853358"><ele>53.97</ele><time>2026-08-20T20:41:45Z</time></trkpt><trkpt lat="59.1039433144" lon="30.4854740202"><ele>53.97</ele><time>2026-08-20T20:42:06Z</time></trkpt><trkpt lat="59.1039429791" lon="30.4854707513"><ele>53.97</ele><time>2026-08-20T20:42:33Z</time></trkpt><trkpt lat="59.1039464157" lon="30.4854710866"><ele>53.97</ele><time>2026-08-20T20:43:05Z</time></trkpt><trkpt lat="59.1039419733" lon="30.4854653031"><ele>53.97</ele><time>2026-08-20T20:43:32Z</time></trkpt><trkpt lat="59.1039462481" lon="30.4854611959"><ele>53.97</ele><time>2026-08-20T20:44:04Z</time></trkpt><trkpt lat="59.1039513610" lon="30.4854640458"><ele>53.97</ele><time>2026-08-20T20:44:33Z</time></trkpt><trkpt lat="59.1039578989" lon="30.4854644649"><ele>53.97</ele><time>2026-08-20T20:45:06Z</time></trkpt><trkpt lat="59.1039573122" lon="30.4854589328"><ele>53.97</ele><time>2026-08-20T20:45:36Z</time></trkpt><trkpt lat="59.1039627604" lon="30.4854447674"><ele>53.97</ele><time>2026-08-20T20:45:59Z</time></trkpt><trkpt lat="59.1039725672" lon="30.4854274169"><ele>53.97</ele><time>2026-08-20T20:46:30Z</time></trkpt><trkpt lat="59.1039594077" lon="30.4854985792"><ele>53.97</ele><time>2026-08-20T20:47:02Z</time></trkpt><trkpt lat="59.1039460804" lon="30.4855161812"><ele>54.45</ele><time>2026-08-20T20:47:33Z</time></trkpt><trkpt lat="59.1039463319" lon="30.4855125770"><ele>54.45</ele><time>2026-08-20T20:48:15Z</time></trkpt><trkpt lat="59.1039480921" lon="30.4855111521"><ele>54.93</ele><time>2026-08-20T20:48:49Z</time></trkpt><trkpt lat="59.1039499361" lon="30.4855161812"><ele>54.45</ele><time>2026-08-20T20:49:23Z</time></trkpt><trkpt lat="59.1039485950" lon="30.4855225515"><ele>54.93</ele><time>2026-08-20T20:49:58Z</time></trkpt><trkpt lat="59.1039480921" lon="30.4855311010"><ele>54.93</ele><time>2026-08-20T20:50:34Z</time></trkpt><trkpt lat="59.1039475892" lon="30.4855314363"><ele>54.93</ele><time>2026-08-20T20:51:05Z</time></trkpt><trkpt lat="59.1039509419" lon="30.4855349567"><ele>55.41</ele><time>2026-08-20T20:51:33Z</time></trkpt><trkpt lat="59.1039538756" lon="30.4855365492"><ele>55.41</ele><time>2026-08-20T20:52:05Z</time></trkpt><trkpt lat="59.1039584018" lon="30.4855448473"><ele>55.41</ele><time>2026-08-20T20:52:40Z</time></trkpt><trkpt lat="59.1039599944" lon="30.4855347890"><ele>55.89</ele><time>2026-08-20T20:53:05Z</time></trkpt><trkpt lat="59.1039630957" lon="30.4855404049"><ele>55.89</ele><time>2026-08-20T20:53:34Z</time></trkpt><trkpt lat="59.1039513610" lon="30.4854642134"><ele>55.89</ele><time>2026-08-20T20:53:57Z</time></trkpt><trkpt lat="59.1039298195" lon="30.4853834957"><ele>55.89</ele><time>2026-08-20T20:54:01Z</time></trkpt><trkpt lat="59.1038848925" lon="30.4851850122"><ele>55.89</ele><time>2026-08-20T20:54:10Z</time></trkpt><trkpt lat="59.1038707271" lon="30.4849405959"><ele>55.89</ele><time>2026-08-20T20:54:23Z</time></trkpt><trkpt lat="59.1038552206" lon="30.4848167952"><ele>55.89</ele><time>2026-08-20T20:54:33Z</time></trkpt><trkpt lat="59.1038551368" lon="30.4847872909"><ele>55.89</ele><time>2026-08-20T20:54:48Z</time></trkpt><trkpt lat="59.1038615908" lon="30.4847747181"><ele>55.89</ele><time>2026-08-20T20:55:12Z</time></trkpt><trkpt lat="59.1038222797" lon="30.4847569484"><ele>55.89</ele><time>2026-08-20T20:55:27Z</time></trkpt><trkpt lat="59.1038120538" lon="30.4847624805"><ele>55.89</ele><time>2026-08-20T20:55:54Z</time></trkpt><trkpt lat="59.1037925240" lon="30.4847154580"><ele>55.89</ele><time>2026-08-20T20:56:14Z</time></trkpt><trkpt lat="59.1037844773" lon="30.4847548530"><ele>55.89</ele><time>2026-08-20T20:56:34Z</time></trkpt><trkpt lat="59.1037806217" lon="30.4847582895"><ele>55.41</ele><time>2026-08-20T20:56:57Z</time></trkpt><trkpt lat="59.1038576514" lon="30.4847255163"><ele>55.41</ele><time>2026-08-20T20:57:10Z</time></trkpt><trkpt lat="59.1039999761" lon="30.4846863728"><ele>55.41</ele><time>2026-08-20T20:57:25Z</time></trkpt><trkpt lat="59.1041126288" lon="30.4846567009"><ele>55.41</ele><time>2026-08-20T20:57:40Z</time></trkpt><trkpt lat="59.1041583102" lon="30.4846628197"><ele>55.41</ele><time>2026-08-20T20:57:52Z</time></trkpt><trkpt lat="59.1041726433" lon="30.4846644960"><ele>55.41</ele><time>2026-08-20T20:58:07Z</time></trkpt><trkpt lat="59.1042200010" lon="30.4846480675"><ele>55.41</ele><time>2026-08-20T20:58:20Z</time></trkpt><trkpt lat="59.1042675264" lon="30.4846156295"><ele>55.41</ele><time>2026-08-20T20:58:38Z</time></trkpt><trkpt lat="59.1043179017" lon="30.4846318904"><ele>55.41</ele><time>2026-08-20T20:58:51Z</time></trkpt><trkpt lat="59.1044337396" lon="30.4846151266"><ele>54.93</ele><time>2026-08-20T20:59:09Z</time></trkpt><trkpt lat="59.1044694465" lon="30.4846229218"><ele>54.93</ele><time>2026-08-20T20:59:22Z</time></trkpt><trkpt lat="59.1044700332" lon="30.4846380092"><ele>54.45</ele><time>2026-08-20T20:59:34Z</time></trkpt><trkpt lat="59.1044659261" lon="30.4846541863"><ele>54.45</ele><time>2026-08-20T20:59:51Z</time></trkpt><trkpt lat="59.1044683568" lon="30.4846545216"><ele>54.45</ele><time>2026-08-20T21:00:09Z</time></trkpt><trkpt lat="59.1044866294" lon="30.4846344888"><ele>54.45</ele><time>2026-08-20T21:00:33Z</time></trkpt><trkpt lat="59.1045344062" lon="30.4845825210"><ele>54.45</ele><time>2026-08-20T21:00:43Z</time></trkpt><trkpt lat="59.1045663413" lon="30.4845655896"><ele>54.45</ele><time>2026-08-20T21:00:47Z</time></trkpt><trkpt lat="59.1046923213" lon="30.4845422879"><ele>54.45</ele><time>2026-08-20T21:00:59Z</time></trkpt><trkpt lat="59.1047512461" lon="30.4845516756"><ele>54.45</ele><time>2026-08-20T21:01:10Z</time></trkpt><trkpt lat="59.1047551017" lon="30.4845670145"><ele>54.45</ele><time>2026-08-20T21:01:28Z</time></trkpt><trkpt lat="59.1047774814" lon="30.4845520109"><ele>54.45</ele><time>2026-08-20T21:01:43Z</time></trkpt><trkpt lat="59.1048832610" lon="30.4845109396"><ele>54.45</ele><time>2026-08-20T21:01:56Z</time></trkpt><trkpt lat="59.1049540881" lon="30.4844909906"><ele>54.45</ele><time>2026-08-20T21:02:06Z</time></trkpt><trkpt lat="59.1050313693" lon="30.4844387714"><ele>54.45</ele><time>2026-08-20T21:02:14Z</time></trkpt><trkpt lat="59.1051769629" lon="30.4843912460"><ele>54.45</ele><time>2026-08-20T21:02:29Z</time></trkpt><trkpt lat="59.1052192077" lon="30.4843516834"><ele>54.45</ele><time>2026-08-20T21:02:40Z</time></trkpt><trkpt lat="59.1053361353" lon="30.4842931777"><ele>54.45</ele><time>2026-08-20T21:02:53Z</time></trkpt><trkpt lat="59.1054461058" lon="30.4843237717"><ele>54.45</ele><time>2026-08-20T21:03:05Z</time></trkpt><trkpt lat="59.1055150051" lon="30.4842994642"><ele>54.45</ele><time>2026-08-20T21:03:18Z</time></trkpt><trkpt lat="59.1055821441" lon="30.4842778388"><ele>54.45</ele><time>2026-08-20T21:03:28Z</time></trkpt><trkpt lat="59.1056952160" lon="30.4842415452"><ele>54.45</ele><time>2026-08-20T21:03:40Z</time></trkpt><trkpt lat="59.1057431605" lon="30.4842432216"><ele>54.45</ele><time>2026-08-20T21:03:55Z</time></trkpt><trkpt lat="59.1058159992" lon="30.4842182435"><ele>54.45</ele><time>2026-08-20T21:04:06Z</time></trkpt><trkpt lat="59.1059039254" lon="30.4842108674"><ele>54.45</ele><time>2026-08-20T21:04:19Z</time></trkpt><trkpt lat="59.1059156600" lon="30.4842086043"><ele>54.45</ele><time>2026-08-20T21:04:31Z</time></trkpt><trkpt lat="59.1059624311" lon="30.4841979593"><ele>54.45</ele><time>2026-08-20T21:04:43Z</time></trkpt><trkpt lat="59.1060491838" lon="30.4841728974"><ele>54.45</ele><time>2026-08-20T21:04:53Z</time></trkpt><trkpt lat="59.1061343439" lon="30.4841190856"><ele>53.97</ele><time>2026-08-20T21:05:05Z</time></trkpt><trkpt lat="59.1061749123" lon="30.4841205105"><ele>53.97</ele><time>2026-08-20T21:05:19Z</time></trkpt><trkpt lat="59.1063506808" lon="30.4840331711"><ele>53.97</ele><time>2026-08-20T21:05:32Z</time></trkpt><trkpt lat="59.1064833663" lon="30.4840091150"><ele>53.97</ele><time>2026-08-20T21:05:46Z</time></trkpt><trkpt lat="59.1065697838" lon="30.4839968774"><ele>53.97</ele><time>2026-08-20T21:05:57Z</time></trkpt><trkpt lat="59.1066720430" lon="30.4840241186"><ele>53.97</ele><time>2026-08-20T21:06:11Z</time></trkpt><trkpt lat="59.1067292076" lon="30.4840202630"><ele>53.97</ele><time>2026-08-20T21:06:24Z</time></trkpt><trkpt lat="59.1067529283" lon="30.4840279743"><ele>53.97</ele><time>2026-08-20T21:06:37Z</time></trkpt><trkpt lat="59.1068514995" lon="30.4839993920"><ele>53.97</ele><time>2026-08-20T21:06:48Z</time></trkpt><trkpt lat="59.1069455445" lon="30.4839694686"><ele>53.97</ele><time>2026-08-20T21:07:00Z</time></trkpt><trkpt lat="59.1069852747" lon="30.4839513637"><ele>53.97</ele><time>2026-08-20T21:07:12Z</time></trkpt><trkpt lat="59.1070357338" lon="30.4839460831"><ele>53.97</ele><time>2026-08-20T21:07:24Z</time></trkpt><trkpt lat="59.1070969217" lon="30.4839130584"><ele>53.49</ele><time>2026-08-20T21:07:38Z</time></trkpt><trkpt lat="59.1071444470" lon="30.4839145672"><ele>53.49</ele><time>2026-08-20T21:07:50Z</time></trkpt><trkpt lat="59.1073249932" lon="30.4838815425"><ele>54.45</ele><time>2026-08-20T21:08:08Z</time></trkpt><trkpt lat="59.1073773801" lon="30.4838799499"><ele>54.45</ele><time>2026-08-20T21:08:23Z</time></trkpt><trkpt lat="59.1074445192" lon="30.4838641919"><ele>54.45</ele><time>2026-08-20T21:08:34Z</time></trkpt><trkpt lat="59.1075108200" lon="30.4838632699"><ele>54.45</ele><time>2026-08-20T21:08:48Z</time></trkpt><trkpt lat="59.1075933818" lon="30.4838318378"><ele>54.45</ele><time>2026-08-20T21:09:02Z</time></trkpt><trkpt lat="59.1076648794" lon="30.4838266410"><ele>54.45</ele><time>2026-08-20T21:09:14Z</time></trkpt><trkpt lat="59.1077592596" lon="30.4838180915"><ele>54.45</ele><time>2026-08-20T21:09:25Z</time></trkpt><trkpt lat="59.1078334395" lon="30.4838177562"><ele>54.45</ele><time>2026-08-20T21:09:35Z</time></trkpt><trkpt lat="59.1078683920" lon="30.4838125594"><ele>54.45</ele><time>2026-08-20T21:09:46Z</time></trkpt><trkpt lat="59.1079217009" lon="30.4838460032"><ele>54.45</ele><time>2026-08-20T21:10:00Z</time></trkpt><trkpt lat="59.1079614311" lon="30.4838360287"><ele>54.45</ele><time>2026-08-20T21:10:16Z</time></trkpt><trkpt lat="59.1080023348" lon="30.4838185105"><ele>54.45</ele><time>2026-08-20T21:10:35Z</time></trkpt><trkpt lat="59.1080958769" lon="30.4837848153"><ele>54.45</ele><time>2026-08-20T21:10:48Z</time></trkpt><trkpt lat="59.1081879102" lon="30.4837426543"><ele>54.45</ele><time>2026-08-20T21:11:01Z</time></trkpt><trkpt lat="59.1082654428" lon="30.4837380443"><ele>54.45</ele><time>2026-08-20T21:11:17Z</time></trkpt><trkpt lat="59.1083057597" lon="30.4837350268"><ele>54.45</ele><time>2026-08-20T21:11:30Z</time></trkpt><trkpt lat="59.1084063426" lon="30.4837248847"><ele>54.45</ele><time>2026-08-20T21:11:42Z</time></trkpt><trkpt lat="59.1085257009" lon="30.4836799577"><ele>54.93</ele><time>2026-08-20T21:11:56Z</time></trkpt><trkpt lat="59.1086196620" lon="30.4836826399"><ele>54.93</ele><time>2026-08-20T21:12:10Z</time></trkpt><trkpt lat="59.1087172274" lon="30.4836834781"><ele>54.93</ele><time>2026-08-20T21:12:28Z</time></trkpt><trkpt lat="59.1087839473" lon="30.4836377967"><ele>54.93</ele><time>2026-08-20T21:12:47Z</time></trkpt><trkpt lat="59.1088702809" lon="30.4835982341"><ele>54.93</ele><time>2026-08-20T21:13:02Z</time></trkpt><trkpt lat="59.1089682654" lon="30.4835720826"><ele>54.93</ele><time>2026-08-20T21:13:15Z</time></trkpt><trkpt lat="59.1090303753" lon="30.4835532233"><ele>54.93</ele><time>2026-08-20T21:13:28Z</time></trkpt><trkpt lat="59.1090368293" lon="30.4834961426"><ele>55.41</ele><time>2026-08-20T21:13:41Z</time></trkpt><trkpt lat="59.1090332251" lon="30.4834450968"><ele>55.41</ele><time>2026-08-20T21:13:50Z</time></trkpt><trkpt lat="59.1090567783" lon="30.4833823163"><ele>55.41</ele><time>2026-08-20T21:14:01Z</time></trkpt><trkpt lat="59.1090515815" lon="30.4833362158"><ele>55.41</ele><time>2026-08-20T21:14:15Z</time></trkpt><trkpt lat="59.1090650763" lon="30.4832852539"><ele>55.41</ele><time>2026-08-20T21:14:24Z</time></trkpt><trkpt lat="59.1090688482" lon="30.4832610302"><ele>55.41</ele><time>2026-08-20T21:14:33Z</time></trkpt><trkpt lat="59.1091284435" lon="30.4831083119"><ele>55.41</ele><time>2026-08-20T21:14:42Z</time></trkpt><trkpt lat="59.1091709398" lon="30.4830747843"><ele>55.41</ele><time>2026-08-20T21:14:48Z</time></trkpt><trkpt lat="59.1092271823" lon="30.4830711801"><ele>55.41</ele><time>2026-08-20T21:14:53Z</time></trkpt><trkpt lat="59.1092665773" lon="30.4830580205"><ele>55.41</ele><time>2026-08-20T21:15:05Z</time></trkpt><trkpt lat="59.1093090735" lon="30.4830441065"><ele>55.41</ele><time>2026-08-20T21:15:14Z</time></trkpt><trkpt lat="59.1093474627" lon="30.4830254987"><ele>55.41</ele><time>2026-08-20T21:15:23Z</time></trkpt><trkpt lat="59.1093860194" lon="30.4830144346"><ele>55.41</ele><time>2026-08-20T21:15:42Z</time></trkpt><trkpt lat="59.1094821598" lon="30.4829986766"><ele>55.41</ele><time>2026-08-20T21:16:04Z</time></trkpt></trkseg></trk></gpx>